<?xml version='1.0' encoding='UTF-8'?><gpx version="1.1" creator="JPX - https://github.com/jenetics/jpx" xmlns="http://www.topografix.com/GPX/1/1"><trk><trkseg><trkpt lat="57.789043494146995" lon="-3.986479858681622"><ele>18.0</ele><time>2026-04-29T15:44:04.001Z</time></trkpt><trkpt lat="57.789135454100915" lon="-3.9863260026063583"><ele>18.0</ele><time>2026-04-29T15:44:06.001Z</time></trkpt><trkpt lat="57.78922318598334" lon="-3.9861778081854946"><ele>18.0</ele><time>2026-04-29T15:44:08.001Z</time></trkpt><trkpt lat="57.789313215233335" lon="-3.9860262065044343"><ele>18.0</ele><time>2026-04-29T15:44:10.001Z</time></trkpt><trkpt lat="57.78939738161454" lon="-3.9858882397222284"><ele>18.2</ele><time>2026-04-29T15:44:12.002Z</time></trkpt><trkpt lat="57.789474859663315" lon="-3.985761461741637"><ele>18.4</ele><time>2026-04-29T15:44:14.002Z</time></trkpt><trkpt lat="57.789550147692864" lon="-3.9856435660249074"><ele>18.599999999999998</ele><time>2026-04-29T15:44:16.002Z</time></trkpt><trkpt lat="57.78962074987368" lon="-3.9855430598217456"><ele>18.8</ele><time>2026-04-29T15:44:18.002Z</time></trkpt><trkpt lat="57.789674252170315" lon="-3.9854149391884235"><ele>19.0</ele><time>2026-04-29T15:44:20.002Z</time></trkpt><trkpt lat="57.789744122449434" lon="-3.98535850773226"><ele>19.0</ele><time>2026-04-29T15:44:22.002Z</time></trkpt><trkpt lat="57.789809965008956" lon="-3.985303224195877"><ele>19.0</ele><time>2026-04-29T15:44:24.002Z</time></trkpt><trkpt lat="57.78988516390853" lon="-3.985295678464049"><ele>19.0</ele><time>2026-04-29T15:44:26.002Z</time></trkpt><trkpt lat="57.78995349080467" lon="-3.9852465457883337"><ele>19.0</ele><time>2026-04-29T15:44:28.002Z</time></trkpt><trkpt lat="57.79002580824247" lon="-3.985203306575693"><ele>19.0</ele><time>2026-04-29T15:44:30.002Z</time></trkpt><trkpt lat="57.790681009034124" lon="-3.984663778310367"><ele>19.0</ele><time>2026-04-29T15:46:07.001Z</time></trkpt><trkpt lat="57.79075076004362" lon="-3.9845517828696213"><ele>19.0</ele><time>2026-04-29T15:46:09.001Z</time></trkpt><trkpt lat="57.79079857977696" lon="-3.984434961258148"><ele>19.0</ele><time>2026-04-29T15:46:11.001Z</time></trkpt><trkpt lat="57.79086035711176" lon="-3.9843168017649067"><ele>19.0</ele><time>2026-04-29T15:46:13.001Z</time></trkpt><trkpt lat="57.790912460351535" lon="-3.984162202362966"><ele>19.0</ele><time>2026-04-29T15:46:15.001Z</time></trkpt><trkpt lat="57.7909667064517" lon="-3.983997576015484"><ele>19.0</ele><time>2026-04-29T15:46:17.001Z</time></trkpt><trkpt lat="57.79102727948961" lon="-3.9838332505244267"><ele>19.0</ele><time>2026-04-29T15:46:19.001Z</time></trkpt><trkpt lat="57.79110490186848" lon="-3.983686639753311"><ele>19.0</ele><time>2026-04-29T15:46:21.001Z</time></trkpt><trkpt lat="57.79118061235694" lon="-3.983565314588511"><ele>19.0</ele><time>2026-04-29T15:46:23.001Z</time></trkpt><trkpt lat="57.79126760310506" lon="-3.983472082573726"><ele>19.0</ele><time>2026-04-29T15:46:25.001Z</time></trkpt><trkpt lat="57.79134906796827" lon="-3.983370996211647"><ele>19.2</ele><time>2026-04-29T15:46:27.001Z</time></trkpt><trkpt lat="57.79142531422116" lon="-3.98326708309562"><ele>19.4</ele><time>2026-04-29T15:46:29.001Z</time></trkpt><trkpt lat="57.79149901744647" lon="-3.983145934311849"><ele>19.6</ele><time>2026-04-29T15:46:31.001Z</time></trkpt><trkpt lat="57.79158392746388" lon="-3.9830532069811495"><ele>19.8</ele><time>2026-04-29T15:46:33.001Z</time></trkpt><trkpt lat="57.79165007244694" lon="-3.9829255366715097"><ele>20.0</ele><time>2026-04-29T15:46:35.001Z</time></trkpt><trkpt lat="57.79171835609322" lon="-3.9828012171108007"><ele>20.0</ele><time>2026-04-29T15:46:37.001Z</time></trkpt><trkpt lat="57.79179088267728" lon="-3.9826680678705264"><ele>20.0</ele><time>2026-04-29T15:46:39.001Z</time></trkpt><trkpt lat="57.791865732666174" lon="-3.982530349612212"><ele>20.0</ele><time>2026-04-29T15:46:41.001Z</time></trkpt><trkpt lat="57.79193344841202" lon="-3.9823742337345545"><ele>20.0</ele><time>2026-04-29T15:46:43.001Z</time></trkpt><trkpt lat="57.792011464955536" lon="-3.9822328562118656"><ele>20.0</ele><time>2026-04-29T15:46:45.001Z</time></trkpt><trkpt lat="57.79208949765529" lon="-3.9820985617765894"><ele>20.6</ele><time>2026-04-29T15:46:47.001Z</time></trkpt><trkpt lat="57.79216874326079" lon="-3.981943449476965"><ele>21.2</ele><time>2026-04-29T15:46:49.001Z</time></trkpt><trkpt lat="57.792244486889274" lon="-3.981812983578542"><ele>21.799999999999997</ele><time>2026-04-29T15:46:51.001Z</time></trkpt><trkpt lat="57.79231671952357" lon="-3.9816849628557343"><ele>22.4</ele><time>2026-04-29T15:46:53.001Z</time></trkpt><trkpt lat="57.79238718594465" lon="-3.9815699998184315"><ele>23.0</ele><time>2026-04-29T15:46:55.001Z</time></trkpt><trkpt lat="57.79247416921175" lon="-3.981470526504975"><ele>23.0</ele><time>2026-04-29T15:46:57.001Z</time></trkpt><trkpt lat="57.79254829514321" lon="-3.981359632561282"><ele>23.0</ele><time>2026-04-29T15:46:59.001Z</time></trkpt><trkpt lat="57.792622669767205" lon="-3.9812413413386336"><ele>23.0</ele><time>2026-04-29T15:47:01.001Z</time></trkpt><trkpt lat="57.79270140716102" lon="-3.981133916524542"><ele>23.0</ele><time>2026-04-29T15:47:03.001Z</time></trkpt><trkpt lat="57.79278438095868" lon="-3.981014643353317"><ele>23.0</ele><time>2026-04-29T15:47:05.001Z</time></trkpt><trkpt lat="57.792865623382674" lon="-3.9808951282904914"><ele>22.2</ele><time>2026-04-29T15:47:07.001Z</time></trkpt><trkpt lat="57.792957610283565" lon="-3.9808008946114506"><ele>21.4</ele><time>2026-04-29T15:47:09.001Z</time></trkpt><trkpt lat="57.7930365882848" lon="-3.9806802033237965"><ele>20.599999999999998</ele><time>2026-04-29T15:47:11.001Z</time></trkpt><trkpt lat="57.793115225507584" lon="-3.980600013225523"><ele>19.799999999999997</ele><time>2026-04-29T15:47:13.001Z</time></trkpt><trkpt lat="57.79319229627827" lon="-3.980520063667094"><ele>19.0</ele><time>2026-04-29T15:47:15.001Z</time></trkpt><trkpt lat="57.79327778457523" lon="-3.980424935798182"><ele>19.0</ele><time>2026-04-29T15:47:17.001Z</time></trkpt><trkpt lat="57.793369077861755" lon="-3.98035198391041"><ele>19.0</ele><time>2026-04-29T15:47:19.001Z</time></trkpt><trkpt lat="57.79345893249698" lon="-3.9802745463616565"><ele>19.0</ele><time>2026-04-29T15:47:21.001Z</time></trkpt><trkpt lat="57.793542676026696" lon="-3.980174672564478"><ele>19.0</ele><time>2026-04-29T15:47:23Z</time></trkpt><trkpt lat="57.79362355393572" lon="-3.9800777429758525"><ele>19.0</ele><time>2026-04-29T15:47:25Z</time></trkpt><trkpt lat="57.79369761985594" lon="-3.979940643768993"><ele>19.2</ele><time>2026-04-29T15:47:27Z</time></trkpt><trkpt lat="57.79377388379116" lon="-3.979813762222043"><ele>19.4</ele><time>2026-04-29T15:47:29Z</time></trkpt><trkpt lat="57.793843271035634" lon="-3.9796944830684224"><ele>19.6</ele><time>2026-04-29T15:47:31Z</time></trkpt><trkpt lat="57.79392528116344" lon="-3.979581219740914"><ele>19.8</ele><time>2026-04-29T15:47:33Z</time></trkpt><trkpt lat="57.79400395704835" lon="-3.979459008009203"><ele>20.0</ele><time>2026-04-29T15:47:35Z</time></trkpt><trkpt lat="57.794084583368075" lon="-3.979349047815568"><ele>20.0</ele><time>2026-04-29T15:47:37Z</time></trkpt><trkpt lat="57.79416887795123" lon="-3.97925306056668"><ele>20.0</ele><time>2026-04-29T15:47:39Z</time></trkpt><trkpt lat="57.79425296928376" lon="-3.9791466944922127"><ele>20.0</ele><time>2026-04-29T15:47:41Z</time></trkpt><trkpt lat="57.79433889418606" lon="-3.979037624697716"><ele>20.0</ele><time>2026-04-29T15:47:43Z</time></trkpt><trkpt lat="57.79442284281149" lon="-3.9789120644531972"><ele>20.0</ele><time>2026-04-29T15:47:45Z</time></trkpt><trkpt lat="57.79449229455175" lon="-3.9787781844509658"><ele>20.0</ele><time>2026-04-29T15:47:47Z</time></trkpt><trkpt lat="57.79455714479163" lon="-3.978613839787297"><ele>20.0</ele><time>2026-04-29T15:47:49Z</time></trkpt><trkpt lat="57.79463094536793" lon="-3.9784720495245183"><ele>20.0</ele><time>2026-04-29T15:47:51Z</time></trkpt><trkpt lat="57.79470148312579" lon="-3.9783567121237198"><ele>20.0</ele><time>2026-04-29T15:47:53Z</time></trkpt><trkpt lat="57.79478080986366" lon="-3.978292560453256"><ele>20.0</ele><time>2026-04-29T15:47:55Z</time></trkpt><trkpt lat="57.79487670254087" lon="-3.978233604357187"><ele>20.2</ele><time>2026-04-29T15:47:57Z</time></trkpt><trkpt lat="57.79497252547012" lon="-3.978209269640736"><ele>20.4</ele><time>2026-04-29T15:47:59Z</time></trkpt><trkpt lat="57.79508321666075" lon="-3.9782079109933974"><ele>20.6</ele><time>2026-04-29T15:48:01Z</time></trkpt><trkpt lat="57.79518235899244" lon="-3.9782238644540087"><ele>20.8</ele><time>2026-04-29T15:48:03Z</time></trkpt><trkpt lat="57.79527532882282" lon="-3.9783070814709403"><ele>21.0</ele><time>2026-04-29T15:48:05Z</time></trkpt><trkpt lat="57.79534963661752" lon="-3.9784261754886643"><ele>21.6</ele><time>2026-04-29T15:48:07Z</time></trkpt><trkpt lat="57.795407938858624" lon="-3.9785312244460638"><ele>22.200000000000003</ele><time>2026-04-29T15:48:09Z</time></trkpt><trkpt lat="57.79546450809686" lon="-3.978672273691388"><ele>22.799999999999997</ele><time>2026-04-29T15:48:11Z</time></trkpt><trkpt lat="57.795527076591384" lon="-3.9788005304869714"><ele>23.4</ele><time>2026-04-29T15:48:13Z</time></trkpt><trkpt lat="57.795591856209256" lon="-3.978930801530965"><ele>24.0</ele><time>2026-04-29T15:48:15Z</time></trkpt><trkpt lat="57.795657006564596" lon="-3.979071938098747"><ele>23.6</ele><time>2026-04-29T15:48:17Z</time></trkpt><trkpt lat="57.79572397729346" lon="-3.979218064506179"><ele>23.2</ele><time>2026-04-29T15:48:19Z</time></trkpt><trkpt lat="57.795793603161876" lon="-3.9793520894630223"><ele>22.8</ele><time>2026-04-29T15:48:21Z</time></trkpt><trkpt lat="57.79585854794614" lon="-3.979497824214464"><ele>22.400000000000002</ele><time>2026-04-29T15:48:23Z</time></trkpt><trkpt lat="57.795924698443926" lon="-3.979635365243535"><ele>22.0</ele><time>2026-04-29T15:48:25Z</time></trkpt><trkpt lat="57.795995653912215" lon="-3.979768676703049"><ele>22.400000000000002</ele><time>2026-04-29T15:48:27Z</time></trkpt><trkpt lat="57.79605898991126" lon="-3.9799163005305966"><ele>22.8</ele><time>2026-04-29T15:48:29Z</time></trkpt><trkpt lat="57.79613019837802" lon="-3.980046021834093"><ele>23.2</ele><time>2026-04-29T15:48:31Z</time></trkpt><trkpt lat="57.79620983178338" lon="-3.980141822337666"><ele>23.6</ele><time>2026-04-29T15:48:33Z</time></trkpt><trkpt lat="57.796301261238504" lon="-3.9801197025147013"><ele>24.0</ele><time>2026-04-29T15:48:35Z</time></trkpt><trkpt lat="57.79636844354777" lon="-3.979983116204824"><ele>24.4</ele><time>2026-04-29T15:48:37Z</time></trkpt><trkpt lat="57.79643755965695" lon="-3.979845687947606"><ele>24.799999999999997</ele><time>2026-04-29T15:48:39Z</time></trkpt><trkpt lat="57.796501396593655" lon="-3.9797195573899176"><ele>25.200000000000003</ele><time>2026-04-29T15:48:41Z</time></trkpt><trkpt lat="57.79657382853337" lon="-3.9795873062948632"><ele>25.6</ele><time>2026-04-29T15:48:43Z</time></trkpt><trkpt lat="57.79664513780745" lon="-3.979489533527504"><ele>26.0</ele><time>2026-04-29T15:48:45Z</time></trkpt><trkpt lat="57.79671219887638" lon="-3.97938182072094"><ele>26.0</ele><time>2026-04-29T15:48:47Z</time></trkpt><trkpt lat="57.796779462535085" lon="-3.97927071128258"><ele>26.0</ele><time>2026-04-29T15:48:49Z</time></trkpt><trkpt lat="57.796855769775576" lon="-3.979157023899584"><ele>26.0</ele><time>2026-04-29T15:48:51Z</time></trkpt><trkpt lat="57.7969476402915" lon="-3.979049214406815"><ele>26.0</ele><time>2026-04-29T15:48:53Z</time></trkpt><trkpt lat="57.79702203269146" lon="-3.9789546919519707"><ele>26.0</ele><time>2026-04-29T15:48:55Z</time></trkpt><trkpt lat="57.79710561760041" lon="-3.9788518664452392"><ele>25.6</ele><time>2026-04-29T15:48:57Z</time></trkpt><trkpt lat="57.797183578939844" lon="-3.9787613423517265"><ele>25.200000000000003</ele><time>2026-04-29T15:48:59Z</time></trkpt><trkpt lat="57.79726750783606" lon="-3.978679900277688"><ele>24.799999999999997</ele><time>2026-04-29T15:49:01Z</time></trkpt><trkpt lat="57.79735489038015" lon="-3.9785785163951988"><ele>24.4</ele><time>2026-04-29T15:49:03Z</time></trkpt><trkpt lat="57.79743956366152" lon="-3.978476881364524"><ele>24.0</ele><time>2026-04-29T15:49:05Z</time></trkpt><trkpt lat="57.797522596058535" lon="-3.9783773460593035"><ele>24.0</ele><time>2026-04-29T15:49:07Z</time></trkpt><trkpt lat="57.79761430922813" lon="-3.9782885197172244"><ele>24.0</ele><time>2026-04-29T15:49:09Z</time></trkpt><trkpt lat="57.79769118882173" lon="-3.9781958796620946"><ele>24.0</ele><time>2026-04-29T15:49:11Z</time></trkpt><trkpt lat="57.79777062821815" lon="-3.9781184790357766"><ele>24.0</ele><time>2026-04-29T15:49:13Z</time></trkpt><trkpt lat="57.797844395563125" lon="-3.9780274998162444"><ele>24.0</ele><time>2026-04-29T15:49:15Z</time></trkpt><trkpt lat="57.7979210454463" lon="-3.9779518435868484"><ele>24.0</ele><time>2026-04-29T15:49:17Z</time></trkpt><trkpt lat="57.79799959522144" lon="-3.977865154423768"><ele>24.0</ele><time>2026-04-29T15:49:19Z</time></trkpt><trkpt lat="57.79808821098658" lon="-3.977798183044488"><ele>24.0</ele><time>2026-04-29T15:49:21Z</time></trkpt><trkpt lat="57.79818188798481" lon="-3.977727659810509"><ele>24.0</ele><time>2026-04-29T15:49:23Z</time></trkpt><trkpt lat="57.79826327438705" lon="-3.9776475979486023"><ele>24.0</ele><time>2026-04-29T15:49:25Z</time></trkpt><trkpt lat="57.79836699129054" lon="-3.977543709955546"><ele>23.999999999999996</ele><time>2026-04-29T15:49:27Z</time></trkpt><trkpt lat="57.79846285896695" lon="-3.9774140216600236"><ele>24.0</ele><time>2026-04-29T15:49:29Z</time></trkpt><trkpt lat="57.79850964051963" lon="-3.9773312775007756"><ele>24.0</ele><time>2026-04-29T15:49:30Z</time></trkpt><trkpt lat="57.798550492359375" lon="-3.977232747010715"><ele>24.0</ele><time>2026-04-29T15:49:31Z</time></trkpt><trkpt lat="57.79858986779511" lon="-3.9771313705754436"><ele>24.0</ele><time>2026-04-29T15:49:32Z</time></trkpt><trkpt lat="57.79862686259015" lon="-3.9770293368043577"><ele>23.999999999999996</ele><time>2026-04-29T15:49:33Z</time></trkpt><trkpt lat="57.79866263046856" lon="-3.9769283672541067"><ele>24.0</ele><time>2026-04-29T15:49:34Z</time></trkpt><trkpt lat="57.798701419118835" lon="-3.9768283866816647"><ele>23.833333333333332</ele><time>2026-04-29T15:49:35Z</time></trkpt><trkpt lat="57.798737486967994" lon="-3.9767258114693975"><ele>23.666666666666668</ele><time>2026-04-29T15:49:36Z</time></trkpt><trkpt lat="57.7987651033015" lon="-3.976613481481352"><ele>23.5</ele><time>2026-04-29T15:49:37Z</time></trkpt><trkpt lat="57.79880856740929" lon="-3.9763923478991576"><ele>23.333333333333336</ele><time>2026-04-29T15:49:39Z</time></trkpt><trkpt lat="57.79882324677377" lon="-3.9762772221965763"><ele>23.166666666666668</ele><time>2026-04-29T15:49:40Z</time></trkpt><trkpt lat="57.79883515333514" lon="-3.9760415040189896"><ele>23.0</ele><time>2026-04-29T15:49:42Z</time></trkpt><trkpt lat="57.79884820540066" lon="-3.975823333077113"><ele>23.5</ele><time>2026-04-29T15:49:44Z</time></trkpt><trkpt lat="57.79886260837714" lon="-3.975595815730568"><ele>24.0</ele><time>2026-04-29T15:49:46Z</time></trkpt><trkpt lat="57.79887867925882" lon="-3.975392099387664"><ele>24.5</ele><time>2026-04-29T15:49:48Z</time></trkpt><trkpt lat="57.79890007410014" lon="-3.97518116220512"><ele>25.0</ele><time>2026-04-29T15:49:50Z</time></trkpt><trkpt lat="57.798924044339785" lon="-3.9749743208911226"><ele>25.0</ele><time>2026-04-29T15:49:52Z</time></trkpt><trkpt lat="57.79895888236061" lon="-3.974783245338619"><ele>25.0</ele><time>2026-04-29T15:49:54Z</time></trkpt><trkpt lat="57.79897625536586" lon="-3.974593103549844"><ele>25.0</ele><time>2026-04-29T15:49:56Z</time></trkpt><trkpt lat="57.79900208463977" lon="-3.9744149171356833"><ele>25.0</ele><time>2026-04-29T15:49:58Z</time></trkpt><trkpt lat="57.799024367269794" lon="-3.9742683405250627"><ele>25.0</ele><time>2026-04-29T15:50:00Z</time></trkpt><trkpt lat="57.799042716783795" lon="-3.974136219137118"><ele>25.000000000000004</ele><time>2026-04-29T15:50:11Z</time></trkpt><trkpt lat="57.799062622327185" lon="-3.97398458261886"><ele>25.0</ele><time>2026-04-29T15:50:13Z</time></trkpt><trkpt lat="57.79908316199068" lon="-3.9738176642300114"><ele>25.0</ele><time>2026-04-29T15:50:15Z</time></trkpt><trkpt lat="57.799114272897036" lon="-3.973666484867425"><ele>25.0</ele><time>2026-04-29T15:50:17Z</time></trkpt><trkpt lat="57.79914230733468" lon="-3.9735074235109855"><ele>25.000000000000004</ele><time>2026-04-29T15:50:19Z</time></trkpt><trkpt lat="57.79916846027529" lon="-3.9733385127611176"><ele>25.0</ele><time>2026-04-29T15:50:21Z</time></trkpt><trkpt lat="57.79919272748356" lon="-3.9731708010612685"><ele>25.0</ele><time>2026-04-29T15:50:23Z</time></trkpt><trkpt lat="57.79922697349621" lon="-3.9729982445885033"><ele>25.0</ele><time>2026-04-29T15:50:25Z</time></trkpt><trkpt lat="57.79925900288113" lon="-3.9728327421894667"><ele>25.0</ele><time>2026-04-29T15:50:27Z</time></trkpt><trkpt lat="57.799288407215464" lon="-3.9726638298446657"><ele>25.0</ele><time>2026-04-29T15:50:29Z</time></trkpt><trkpt lat="57.7993224137014" lon="-3.9724918775658735"><ele>25.0</ele><time>2026-04-29T15:50:31Z</time></trkpt><trkpt lat="57.7993623126534" lon="-3.972333157604704"><ele>24.4</ele><time>2026-04-29T15:50:33Z</time></trkpt><trkpt lat="57.79939322843817" lon="-3.9721755495186377"><ele>23.8</ele><time>2026-04-29T15:50:35Z</time></trkpt><trkpt lat="57.79943072596141" lon="-3.9720120358341497"><ele>23.200000000000003</ele><time>2026-04-29T15:50:37Z</time></trkpt><trkpt lat="57.79946283346707" lon="-3.9718502972658625"><ele>22.6</ele><time>2026-04-29T15:50:39Z</time></trkpt><trkpt lat="57.79949784741582" lon="-3.9716960346151025"><ele>22.0</ele><time>2026-04-29T15:50:41Z</time></trkpt><trkpt lat="57.79953511351881" lon="-3.9715301784534645"><ele>22.0</ele><time>2026-04-29T15:50:43Z</time></trkpt><trkpt lat="57.799574554472215" lon="-3.9713629163895674"><ele>22.0</ele><time>2026-04-29T15:50:45Z</time></trkpt><trkpt lat="57.79961292916073" lon="-3.971195362014087"><ele>22.0</ele><time>2026-04-29T15:50:47Z</time></trkpt><trkpt lat="57.7996494361785" lon="-3.9710298093175247"><ele>22.0</ele><time>2026-04-29T15:50:49Z</time></trkpt><trkpt lat="57.79968705209268" lon="-3.970869726955922"><ele>22.0</ele><time>2026-04-29T15:50:51Z</time></trkpt><trkpt lat="57.79972135922052" lon="-3.9707115343734167"><ele>22.0</ele><time>2026-04-29T15:50:53Z</time></trkpt><trkpt lat="57.79976234141223" lon="-3.970540736313183"><ele>22.0</ele><time>2026-04-29T15:50:55Z</time></trkpt><trkpt lat="57.79980018208511" lon="-3.9703725542392916"><ele>22.0</ele><time>2026-04-29T15:50:57Z</time></trkpt><trkpt lat="57.79983952766928" lon="-3.9702103986256856"><ele>22.0</ele><time>2026-04-29T15:50:59Z</time></trkpt><trkpt lat="57.79987577831634" lon="-3.970038918158988"><ele>22.0</ele><time>2026-04-29T15:51:01Z</time></trkpt><trkpt lat="57.79991611827859" lon="-3.9698686995042234"><ele>22.0</ele><time>2026-04-29T15:51:03Z</time></trkpt><trkpt lat="57.799955763605425" lon="-3.9697039834008407"><ele>22.0</ele><time>2026-04-29T15:51:05Z</time></trkpt><trkpt lat="57.799993637891035" lon="-3.9695424862460635"><ele>22.0</ele><time>2026-04-29T15:51:07Z</time></trkpt><trkpt lat="57.80003104473253" lon="-3.9693827658232017"><ele>22.0</ele><time>2026-04-29T15:51:09Z</time></trkpt><trkpt lat="57.80006714845023" lon="-3.969212531699358"><ele>22.0</ele><time>2026-04-29T15:51:11Z</time></trkpt><trkpt lat="57.80010603555167" lon="-3.9690388146277584"><ele>22.0</ele><time>2026-04-29T15:51:13Z</time></trkpt><trkpt lat="57.800145363002535" lon="-3.9688628441369205"><ele>22.0</ele><time>2026-04-29T15:51:15Z</time></trkpt><trkpt lat="57.80018739819964" lon="-3.9686839277516732"><ele>22.0</ele><time>2026-04-29T15:51:17Z</time></trkpt><trkpt lat="57.800228835888866" lon="-3.968508083507977"><ele>22.0</ele><time>2026-04-29T15:51:19Z</time></trkpt><trkpt lat="57.80026644440253" lon="-3.968329694256006"><ele>22.0</ele><time>2026-04-29T15:51:21Z</time></trkpt><trkpt lat="57.80030854267344" lon="-3.9681550222648845"><ele>21.8</ele><time>2026-04-29T15:51:23Z</time></trkpt><trkpt lat="57.8003467528952" lon="-3.9679794312174725"><ele>21.6</ele><time>2026-04-29T15:51:25Z</time></trkpt><trkpt lat="57.800386560580016" lon="-3.9677962910092983"><ele>21.400000000000002</ele><time>2026-04-29T15:51:27Z</time></trkpt><trkpt lat="57.80042728029281" lon="-3.967620719285451"><ele>21.200000000000003</ele><time>2026-04-29T15:51:29Z</time></trkpt><trkpt lat="57.800468327496546" lon="-3.967447451406474"><ele>21.0</ele><time>2026-04-29T15:51:31Z</time></trkpt><trkpt lat="57.80050818225306" lon="-3.967269392987716"><ele>21.0</ele><time>2026-04-29T15:51:33Z</time></trkpt><trkpt lat="57.800544609297965" lon="-3.9670945361187098"><ele>21.0</ele><time>2026-04-29T15:51:35Z</time></trkpt><trkpt lat="57.80058168670095" lon="-3.966926100673049"><ele>21.0</ele><time>2026-04-29T15:51:37Z</time></trkpt><trkpt lat="57.800619740883505" lon="-3.9667590163600375"><ele>21.0</ele><time>2026-04-29T15:51:39Z</time></trkpt><trkpt lat="57.80065284412341" lon="-3.96658365213063"><ele>21.0</ele><time>2026-04-29T15:51:41Z</time></trkpt><trkpt lat="57.80069075084852" lon="-3.966418039772001"><ele>21.200000000000003</ele><time>2026-04-29T15:51:43Z</time></trkpt><trkpt lat="57.800728663588586" lon="-3.9662497167130204"><ele>21.400000000000002</ele><time>2026-04-29T15:51:45Z</time></trkpt><trkpt lat="57.800768073638125" lon="-3.9660841937593596"><ele>21.6</ele><time>2026-04-29T15:51:47Z</time></trkpt><trkpt lat="57.80080862904823" lon="-3.965913518726261"><ele>21.8</ele><time>2026-04-29T15:51:49Z</time></trkpt><trkpt lat="57.8008459318182" lon="-3.9657464782185343"><ele>22.0</ele><time>2026-04-29T15:51:51Z</time></trkpt><trkpt lat="57.80088659859769" lon="-3.965584145669401"><ele>22.0</ele><time>2026-04-29T15:51:53Z</time></trkpt><trkpt lat="57.80091928916402" lon="-3.9654104954399148"><ele>22.0</ele><time>2026-04-29T15:51:55Z</time></trkpt><trkpt lat="57.80095760560807" lon="-3.965240914250846"><ele>22.0</ele><time>2026-04-29T15:51:57Z</time></trkpt><trkpt lat="57.800998123993374" lon="-3.9650724286726806"><ele>22.0</ele><time>2026-04-29T15:51:59Z</time></trkpt><trkpt lat="57.8010374915769" lon="-3.9649009123364345"><ele>22.0</ele><time>2026-04-29T15:52:01Z</time></trkpt><trkpt lat="57.801078704215996" lon="-3.964733461213389"><ele>22.0</ele><time>2026-04-29T15:52:03Z</time></trkpt><trkpt lat="57.80111608857857" lon="-3.964564256364825"><ele>22.0</ele><time>2026-04-29T15:52:05Z</time></trkpt><trkpt lat="57.801153425306836" lon="-3.9643979184168683"><ele>22.0</ele><time>2026-04-29T15:52:07Z</time></trkpt><trkpt lat="57.80119093349667" lon="-3.9642256612389986"><ele>22.0</ele><time>2026-04-29T15:52:09Z</time></trkpt><trkpt lat="57.80122901900775" lon="-3.9640593781382663"><ele>22.0</ele><time>2026-04-29T15:52:11Z</time></trkpt><trkpt lat="57.80126422327502" lon="-3.96389115144244"><ele>22.0</ele><time>2026-04-29T15:52:13Z</time></trkpt><trkpt lat="57.80130357064084" lon="-3.9637260472219844"><ele>22.0</ele><time>2026-04-29T15:52:15Z</time></trkpt><trkpt lat="57.80133957644514" lon="-3.9635525824759554"><ele>22.0</ele><time>2026-04-29T15:52:17Z</time></trkpt><trkpt lat="57.801378068323224" lon="-3.9633840165556022"><ele>22.0</ele><time>2026-04-29T15:52:19Z</time></trkpt><trkpt lat="57.80141640556899" lon="-3.9632188306312335"><ele>22.0</ele><time>2026-04-29T15:52:21Z</time></trkpt><trkpt lat="57.80145379521761" lon="-3.963052579132446"><ele>22.0</ele><time>2026-04-29T15:52:23Z</time></trkpt><trkpt lat="57.80148809796088" lon="-3.962886737402952"><ele>22.0</ele><time>2026-04-29T15:52:25Z</time></trkpt><trkpt lat="57.80152535111865" lon="-3.9627219455969054"><ele>22.0</ele><time>2026-04-29T15:52:27Z</time></trkpt><trkpt lat="57.801564717009875" lon="-3.962558809470838"><ele>22.0</ele><time>2026-04-29T15:52:29Z</time></trkpt><trkpt lat="57.80160218419629" lon="-3.9623907514813066"><ele>22.0</ele><time>2026-04-29T15:52:31Z</time></trkpt><trkpt lat="57.80163998648766" lon="-3.962219740879412"><ele>22.0</ele><time>2026-04-29T15:52:33Z</time></trkpt><trkpt lat="57.80167789519679" lon="-3.962049412388493"><ele>22.0</ele><time>2026-04-29T15:52:35Z</time></trkpt><trkpt lat="57.80171501079595" lon="-3.9618811325598164"><ele>22.0</ele><time>2026-04-29T15:52:37Z</time></trkpt><trkpt lat="57.80175399164127" lon="-3.9617198900811132"><ele>22.0</ele><time>2026-04-29T15:52:39Z</time></trkpt><trkpt lat="57.801790121325574" lon="-3.9615495388004036"><ele>22.0</ele><time>2026-04-29T15:52:41Z</time></trkpt><trkpt lat="57.801826399282874" lon="-3.961384435934471"><ele>21.8</ele><time>2026-04-29T15:52:43Z</time></trkpt><trkpt lat="57.80186273926914" lon="-3.961223324607456"><ele>21.6</ele><time>2026-04-29T15:52:45Z</time></trkpt><trkpt lat="57.801903026641135" lon="-3.961062581067"><ele>21.400000000000002</ele><time>2026-04-29T15:52:47Z</time></trkpt><trkpt lat="57.8019405783496" lon="-3.9609028623049407"><ele>21.200000000000003</ele><time>2026-04-29T15:52:49Z</time></trkpt><trkpt lat="57.80197794267236" lon="-3.9607434960198318"><ele>21.0</ele><time>2026-04-29T15:52:51Z</time></trkpt><trkpt lat="57.802018951126556" lon="-3.960586013684436"><ele>21.0</ele><time>2026-04-29T15:52:53Z</time></trkpt><trkpt lat="57.80205235324972" lon="-3.9604194060794784"><ele>21.0</ele><time>2026-04-29T15:52:55Z</time></trkpt><trkpt lat="57.80209156867293" lon="-3.96025404847617"><ele>21.0</ele><time>2026-04-29T15:52:56.999Z</time></trkpt><trkpt lat="57.80213492580663" lon="-3.9600949124975977"><ele>21.0</ele><time>2026-04-29T15:52:58.999Z</time></trkpt><trkpt lat="57.80218218564896" lon="-3.959945119863722"><ele>21.0</ele><time>2026-04-29T15:53:00.999Z</time></trkpt><trkpt lat="57.80225748309529" lon="-3.959859073250924"><ele>21.0</ele><time>2026-04-29T15:53:02.999Z</time></trkpt><trkpt lat="57.802344752144265" lon="-3.959930253398788"><ele>21.0</ele><time>2026-04-29T15:53:04.999Z</time></trkpt><trkpt lat="57.80238125833808" lon="-3.960101781475561"><ele>21.0</ele><time>2026-04-29T15:53:06.999Z</time></trkpt><trkpt lat="57.80242916692943" lon="-3.9602601051466357"><ele>21.0</ele><time>2026-04-29T15:53:08.999Z</time></trkpt><trkpt lat="57.802478577402724" lon="-3.960414879259438"><ele>21.0</ele><time>2026-04-29T15:53:10.999Z</time></trkpt><trkpt lat="57.802533394024" lon="-3.9605698742387605"><ele>21.0</ele><time>2026-04-29T15:53:13Z</time></trkpt><trkpt lat="57.80258745729854" lon="-3.960728448495492"><ele>21.0</ele><time>2026-04-29T15:53:15Z</time></trkpt><trkpt lat="57.80264442252345" lon="-3.960895738195468"><ele>21.0</ele><time>2026-04-29T15:53:17Z</time></trkpt><trkpt lat="57.80269895152017" lon="-3.9610619115182915"><ele>21.0</ele><time>2026-04-29T15:53:19Z</time></trkpt><trkpt lat="57.802735418674395" lon="-3.9612501485200635"><ele>21.0</ele><time>2026-04-29T15:53:21Z</time></trkpt><trkpt lat="57.802761544039804" lon="-3.961455501019423"><ele>18.8</ele><time>2026-04-29T15:53:23Z</time></trkpt><trkpt lat="57.802786829525715" lon="-3.9616732102568326"><ele>16.6</ele><time>2026-04-29T15:53:25Z</time></trkpt><trkpt lat="57.80279536622827" lon="-3.961894833451995"><ele>14.4</ele><time>2026-04-29T15:53:27Z</time></trkpt><trkpt lat="57.802795454549866" lon="-3.962121995013268"><ele>12.2</ele><time>2026-04-29T15:53:29Z</time></trkpt><trkpt lat="57.80279780232528" lon="-3.96224409837059"><ele>10.0</ele><time>2026-04-29T15:53:30Z</time></trkpt><trkpt lat="57.80280917439623" lon="-3.9624886199390708"><ele>10.0</ele><time>2026-04-29T15:53:32Z</time></trkpt><trkpt lat="57.802817477913365" lon="-3.9626117053263603"><ele>10.0</ele><time>2026-04-29T15:53:33Z</time></trkpt><trkpt lat="57.80282565810864" lon="-3.962741400987484"><ele>10.0</ele><time>2026-04-29T15:53:34Z</time></trkpt><trkpt lat="57.802837759833686" lon="-3.9628660289097053"><ele>10.0</ele><time>2026-04-29T15:53:35Z</time></trkpt><trkpt lat="57.80286033838653" lon="-3.9629969686561237"><ele>10.0</ele><time>2026-04-29T15:53:36Z</time></trkpt><trkpt lat="57.80288142734444" lon="-3.9631270396301024"><ele>10.0</ele><time>2026-04-29T15:53:37Z</time></trkpt><trkpt lat="57.80290453241742" lon="-3.9632604337012802"><ele>10.0</ele><time>2026-04-29T15:53:38Z</time></trkpt><trkpt lat="57.80292757456138" lon="-3.9633969236786726"><ele>10.0</ele><time>2026-04-29T15:53:39Z</time></trkpt><trkpt lat="57.80292596733202" lon="-3.963552785671503"><ele>10.0</ele><time>2026-04-29T15:53:40Z</time></trkpt><trkpt lat="57.802949246223896" lon="-3.9636931564012343"><ele>10.0</ele><time>2026-04-29T15:53:41Z</time></trkpt><trkpt lat="57.802972468668756" lon="-3.963832791403467"><ele>10.0</ele><time>2026-04-29T15:53:42Z</time></trkpt><trkpt lat="57.80299718162003" lon="-3.9639731980886967"><ele>10.0</ele><time>2026-04-29T15:53:43Z</time></trkpt><trkpt lat="57.803022669396945" lon="-3.9641171744093535"><ele>10.0</ele><time>2026-04-29T15:53:44Z</time></trkpt><trkpt lat="57.803060679187155" lon="-3.9642507243699994"><ele>10.0</ele><time>2026-04-29T15:53:45Z</time></trkpt><trkpt lat="57.80308466946049" lon="-3.96439620216625"><ele>10.0</ele><time>2026-04-29T15:53:46Z</time></trkpt><trkpt lat="57.803109214214295" lon="-3.964542976897931"><ele>10.0</ele><time>2026-04-29T15:53:47Z</time></trkpt><trkpt lat="57.80311962991903" lon="-3.9646713859569913"><ele>10.0</ele><time>2026-04-29T15:53:48Z</time></trkpt><trkpt lat="57.80314149816233" lon="-3.9648048888859777"><ele>10.0</ele><time>2026-04-29T15:53:49Z</time></trkpt><trkpt lat="57.803166341571426" lon="-3.9649463353648278"><ele>10.0</ele><time>2026-04-29T15:53:50Z</time></trkpt><trkpt lat="57.80319061541984" lon="-3.9650832581305298"><ele>9.714285714285714</ele><time>2026-04-29T15:53:51Z</time></trkpt><trkpt lat="57.80321287525116" lon="-3.9652185057747125"><ele>9.428571428571429</ele><time>2026-04-29T15:53:52Z</time></trkpt><trkpt lat="57.803237256920546" lon="-3.965349245382844"><ele>9.142857142857142</ele><time>2026-04-29T15:53:53Z</time></trkpt><trkpt lat="57.80325442790854" lon="-3.965483534007181"><ele>8.857142857142858</ele><time>2026-04-29T15:53:54Z</time></trkpt><trkpt lat="57.80327253884505" lon="-3.965611789728492"><ele>8.571428571428571</ele><time>2026-04-29T15:53:55Z</time></trkpt><trkpt lat="57.803288522443005" lon="-3.9657475479816626"><ele>8.285714285714285</ele><time>2026-04-29T15:53:56Z</time></trkpt><trkpt lat="57.80331371234312" lon="-3.9658701435728694"><ele>8.0</ele><time>2026-04-29T15:53:57Z</time></trkpt><trkpt lat="57.803326180293574" lon="-3.965991562747518"><ele>7.833333333333333</ele><time>2026-04-29T15:53:58Z</time></trkpt><trkpt lat="57.80334593864445" lon="-3.966107074492694"><ele>7.666666666666666</ele><time>2026-04-29T15:53:59Z</time></trkpt><trkpt lat="57.8033879672724" lon="-3.9663234566691776"><ele>7.5</ele><time>2026-04-29T15:54:01Z</time></trkpt><trkpt lat="57.803413553478286" lon="-3.966435601318652"><ele>7.333333333333334</ele><time>2026-04-29T15:54:02Z</time></trkpt><trkpt lat="57.80343887276638" lon="-3.9665548761657763"><ele>7.166666666666667</ele><time>2026-04-29T15:54:03Z</time></trkpt><trkpt lat="57.80346264085891" lon="-3.9666654092533187"><ele>7.0</ele><time>2026-04-29T15:54:04Z</time></trkpt><trkpt lat="57.803494137858934" lon="-3.9667800960727613"><ele>6.833333333333334</ele><time>2026-04-29T15:54:05Z</time></trkpt><trkpt lat="57.80352603548357" lon="-3.966893738581444"><ele>6.666666666666667</ele><time>2026-04-29T15:54:06Z</time></trkpt><trkpt lat="57.803559611717745" lon="-3.9670061920675193"><ele>6.5</ele><time>2026-04-29T15:54:07Z</time></trkpt><trkpt lat="57.803594557388664" lon="-3.967117003337531"><ele>6.333333333333334</ele><time>2026-04-29T15:54:08Z</time></trkpt><trkpt lat="57.80363057909042" lon="-3.967224660726491"><ele>6.166666666666667</ele><time>2026-04-29T15:54:09Z</time></trkpt><trkpt lat="57.8036665387195" lon="-3.967330733158702"><ele>6.0</ele><time>2026-04-29T15:54:10Z</time></trkpt><trkpt lat="57.80372738315784" lon="-3.9675300673672833"><ele>5.999999999999999</ele><time>2026-04-29T15:54:12Z</time></trkpt><trkpt lat="57.80379287453474" lon="-3.967734176285879"><ele>6.0</ele><time>2026-04-29T15:54:14Z</time></trkpt><trkpt lat="57.803826958017005" lon="-3.967835434787655"><ele>6.0</ele><time>2026-04-29T15:54:15Z</time></trkpt><trkpt lat="57.80386151294383" lon="-3.967936180472993"><ele>6.0</ele><time>2026-04-29T15:54:16Z</time></trkpt><trkpt lat="57.80389448531991" lon="-3.9680384127009813"><ele>6.0</ele><time>2026-04-29T15:54:17Z</time></trkpt><trkpt lat="57.803926338838735" lon="-3.9681408795650674"><ele>5.999999999999999</ele><time>2026-04-29T15:54:18Z</time></trkpt><trkpt lat="57.803956766992464" lon="-3.9682483565486857"><ele>6.0</ele><time>2026-04-29T15:54:19Z</time></trkpt><trkpt lat="57.80402657380393" lon="-3.9684405511005285"><ele>6.0</ele><time>2026-04-29T15:54:21Z</time></trkpt><trkpt lat="57.80409263827416" lon="-3.968627134679451"><ele>6.0</ele><time>2026-04-29T15:54:23Z</time></trkpt><trkpt lat="57.80415523972061" lon="-3.96882014817984"><ele>6.0</ele><time>2026-04-29T15:54:25Z</time></trkpt><trkpt lat="57.804215844115134" lon="-3.9689982864313955"><ele>6.0</ele><time>2026-04-29T15:54:27Z</time></trkpt><trkpt lat="57.80427923188833" lon="-3.9691795323781425"><ele>6.25</ele><time>2026-04-29T15:54:29Z</time></trkpt><trkpt lat="57.80433977988402" lon="-3.9693592307938865"><ele>6.5</ele><time>2026-04-29T15:54:31Z</time></trkpt><trkpt lat="57.80439836730669" lon="-3.9695431613950025"><ele>6.75</ele><time>2026-04-29T15:54:33Z</time></trkpt><trkpt lat="57.804461351183235" lon="-3.9697181820238754"><ele>7.0</ele><time>2026-04-29T15:54:35Z</time></trkpt><trkpt lat="57.80452113315403" lon="-3.969903223004843"><ele>6.75</ele><time>2026-04-29T15:54:37Z</time></trkpt><trkpt lat="57.804587258233816" lon="-3.9700882380926776"><ele>6.5</ele><time>2026-04-29T15:54:39Z</time></trkpt><trkpt lat="57.80468389750957" lon="-3.970365965076816"><ele>6.25</ele><time>2026-04-29T15:54:42Z</time></trkpt><trkpt lat="57.80474975754769" lon="-3.9705611943502634"><ele>6.0</ele><time>2026-04-29T15:54:44Z</time></trkpt><trkpt lat="57.8048225762945" lon="-3.9707488564936795"><ele>6.0</ele><time>2026-04-29T15:54:46Z</time></trkpt><trkpt lat="57.804862445216344" lon="-3.970856107044636"><ele>6.0</ele><time>2026-04-29T15:54:47Z</time></trkpt><trkpt lat="57.804911636276195" lon="-3.9710433442248854"><ele>6.0</ele><time>2026-04-29T15:54:49Z</time></trkpt><trkpt lat="57.804975266663625" lon="-3.97124088215255"><ele>6.0</ele><time>2026-04-29T15:54:51Z</time></trkpt><trkpt lat="57.80503731234174" lon="-3.9714189809228913"><ele>6.0</ele><time>2026-04-29T15:54:53Z</time></trkpt><trkpt lat="57.805098003848975" lon="-3.971596545988633"><ele>6.0</ele><time>2026-04-29T15:54:55Z</time></trkpt><trkpt lat="57.805154357959054" lon="-3.9717885701564994"><ele>6.0</ele><time>2026-04-29T15:54:57Z</time></trkpt><trkpt lat="57.80521570323533" lon="-3.97196785144114"><ele>6.0</ele><time>2026-04-29T15:54:59Z</time></trkpt><trkpt lat="57.80527395802122" lon="-3.9721349241379005"><ele>6.0</ele><time>2026-04-29T15:55:01Z</time></trkpt><trkpt lat="57.80530321930471" lon="-3.972246075718352"><ele>6.0</ele><time>2026-04-29T15:55:03Z</time></trkpt><trkpt lat="57.80536085225038" lon="-3.972356346659001"><ele>6.0</ele><time>2026-04-29T15:55:13Z</time></trkpt><trkpt lat="57.8054033399752" lon="-3.9725036592130474"><ele>6.0</ele><time>2026-04-29T15:55:15Z</time></trkpt><trkpt lat="57.80545471305598" lon="-3.972655278173174"><ele>6.0</ele><time>2026-04-29T15:55:17Z</time></trkpt><trkpt lat="57.80550176900992" lon="-3.9728139375149656"><ele>6.0</ele><time>2026-04-29T15:55:19Z</time></trkpt><trkpt lat="57.80555250651543" lon="-3.972976564330643"><ele>6.0</ele><time>2026-04-29T15:55:21Z</time></trkpt><trkpt lat="57.80560824643891" lon="-3.973132516570149"><ele>6.0</ele><time>2026-04-29T15:55:23Z</time></trkpt><trkpt lat="57.80566433367578" lon="-3.973290899641222"><ele>6.0</ele><time>2026-04-29T15:55:25Z</time></trkpt><trkpt lat="57.805720072955694" lon="-3.9734477684661083"><ele>6.0</ele><time>2026-04-29T15:55:27Z</time></trkpt><trkpt lat="57.805771420978154" lon="-3.9735985584512923"><ele>6.0</ele><time>2026-04-29T15:55:29Z</time></trkpt><trkpt lat="57.805832209735634" lon="-3.973750827268691"><ele>6.0</ele><time>2026-04-29T15:55:31Z</time></trkpt><trkpt lat="57.80588598003041" lon="-3.97391850496492"><ele>6.0</ele><time>2026-04-29T15:55:33Z</time></trkpt><trkpt lat="57.805937069146694" lon="-3.974084982134345"><ele>6.0</ele><time>2026-04-29T15:55:35Z</time></trkpt><trkpt lat="57.805994176419" lon="-3.9742419319836064"><ele>6.0</ele><time>2026-04-29T15:55:37Z</time></trkpt><trkpt lat="57.80605123598016" lon="-3.9744096061100147"><ele>6.0</ele><time>2026-04-29T15:55:39Z</time></trkpt><trkpt lat="57.80610640028213" lon="-3.9745710265020606"><ele>6.0</ele><time>2026-04-29T15:55:41Z</time></trkpt><trkpt lat="57.80615796963199" lon="-3.974740805411882"><ele>6.0</ele><time>2026-04-29T15:55:43Z</time></trkpt><trkpt lat="57.80622136399131" lon="-3.9749066583389365"><ele>6.0</ele><time>2026-04-29T15:55:45Z</time></trkpt><trkpt lat="57.806275518689915" lon="-3.9750786323639837"><ele>6.0</ele><time>2026-04-29T15:55:47Z</time></trkpt><trkpt lat="57.80633114008889" lon="-3.9752495781731056"><ele>6.0</ele><time>2026-04-29T15:55:49Z</time></trkpt><trkpt lat="57.80640724665746" lon="-3.9753763396322923"><ele>6.0</ele><time>2026-04-29T15:55:51Z</time></trkpt><trkpt lat="57.806510083730856" lon="-3.9754237393317693"><ele>6.0</ele><time>2026-04-29T15:55:53Z</time></trkpt><trkpt lat="57.80661361572638" lon="-3.975434076675721"><ele>6.0</ele><time>2026-04-29T15:55:55Z</time></trkpt><trkpt lat="57.80669109574195" lon="-3.9754616852692886"><ele>6.0</ele><time>2026-04-29T15:55:57Z</time></trkpt><trkpt lat="57.8067138201664" lon="-3.975612893199158"><ele>6.0</ele><time>2026-04-29T15:55:59Z</time></trkpt><trkpt lat="57.806724977096856" lon="-3.9757786657948957"><ele>6.0</ele><time>2026-04-29T15:56:01Z</time></trkpt><trkpt lat="57.80672198156763" lon="-3.975974207868748"><ele>6.0</ele><time>2026-04-29T15:56:03Z</time></trkpt><trkpt lat="57.80672647477918" lon="-3.976166385984122"><ele>6.0</ele><time>2026-04-29T15:56:05Z</time></trkpt><trkpt lat="57.80672747233536" lon="-3.9763592170279125"><ele>6.0</ele><time>2026-04-29T15:56:07Z</time></trkpt><trkpt lat="57.80673311001881" lon="-3.9765541635319765"><ele>6.0</ele><time>2026-04-29T15:56:09Z</time></trkpt><trkpt lat="57.8067353280515" lon="-3.9767379499862074"><ele>6.0</ele><time>2026-04-29T15:56:11Z</time></trkpt><trkpt lat="57.806731012723944" lon="-3.9769133892817883"><ele>6.0</ele><time>2026-04-29T15:56:13Z</time></trkpt><trkpt lat="57.80672672528969" lon="-3.97709412751455"><ele>6.0</ele><time>2026-04-29T15:56:15Z</time></trkpt><trkpt lat="57.806727726442226" lon="-3.9772858262067805"><ele>6.0</ele><time>2026-04-29T15:56:17Z</time></trkpt><trkpt lat="57.80672983229094" lon="-3.9774784013265174"><ele>6.0</ele><time>2026-04-29T15:56:19Z</time></trkpt><trkpt lat="57.80673000760384" lon="-3.977677684671169"><ele>6.0</ele><time>2026-04-29T15:56:21Z</time></trkpt><trkpt lat="57.80673464599207" lon="-3.977882498768918"><ele>6.0</ele><time>2026-04-29T15:56:23Z</time></trkpt><trkpt lat="57.80673518836285" lon="-3.9780832982295125"><ele>6.0</ele><time>2026-04-29T15:56:25Z</time></trkpt><trkpt lat="57.80673750453521" lon="-3.978284551572303"><ele>6.0</ele><time>2026-04-29T15:56:27Z</time></trkpt><trkpt lat="57.80673732059483" lon="-3.9784862259818117"><ele>6.0</ele><time>2026-04-29T15:56:29Z</time></trkpt><trkpt lat="57.80674018757783" lon="-3.978693005916007"><ele>6.0</ele><time>2026-04-29T15:56:31Z</time></trkpt><trkpt lat="57.8067449667747" lon="-3.9788989750981396"><ele>6.0</ele><time>2026-04-29T15:56:33Z</time></trkpt><trkpt lat="57.80674444702999" lon="-3.9790989328132786"><ele>6.0</ele><time>2026-04-29T15:56:35Z</time></trkpt><trkpt lat="57.806742381050356" lon="-3.979310728098344"><ele>6.0</ele><time>2026-04-29T15:56:37Z</time></trkpt><trkpt lat="57.80674927611595" lon="-3.9795113018443664"><ele>6.0</ele><time>2026-04-29T15:56:39Z</time></trkpt><trkpt lat="57.806748886303936" lon="-3.979725211882691"><ele>6.0</ele><time>2026-04-29T15:56:41Z</time></trkpt><trkpt lat="57.80675008491567" lon="-3.979934915805394"><ele>5.75</ele><time>2026-04-29T15:56:43Z</time></trkpt><trkpt lat="57.80675071495401" lon="-3.9801422337889467"><ele>5.5</ele><time>2026-04-29T15:56:45Z</time></trkpt><trkpt lat="57.80675267000276" lon="-3.9803555090518756"><ele>5.25</ele><time>2026-04-29T15:56:47Z</time></trkpt><trkpt lat="57.80675572943086" lon="-3.980570433551521"><ele>5.0</ele><time>2026-04-29T15:56:49Z</time></trkpt><trkpt lat="57.806758884753876" lon="-3.980783449111673"><ele>5.0</ele><time>2026-04-29T15:56:51Z</time></trkpt><trkpt lat="57.806765510085896" lon="-3.9809956876542545"><ele>5.0</ele><time>2026-04-29T15:56:53Z</time></trkpt><trkpt lat="57.806760270956126" lon="-3.981192565037351"><ele>5.0</ele><time>2026-04-29T15:56:55Z</time></trkpt><trkpt lat="57.80676240455983" lon="-3.981380997651756"><ele>5.0</ele><time>2026-04-29T15:56:57Z</time></trkpt><trkpt lat="57.80676132792633" lon="-3.981579824564835"><ele>5.0</ele><time>2026-04-29T15:56:59Z</time></trkpt><trkpt lat="57.806764709510766" lon="-3.981784808522796"><ele>5.2</ele><time>2026-04-29T15:57:01Z</time></trkpt><trkpt lat="57.806764608276396" lon="-3.981994287055152"><ele>5.4</ele><time>2026-04-29T15:57:03Z</time></trkpt><trkpt lat="57.806769978707415" lon="-3.9822048216923416"><ele>5.6</ele><time>2026-04-29T15:57:05Z</time></trkpt><trkpt lat="57.80677165366954" lon="-3.9824114536743282"><ele>5.8</ele><time>2026-04-29T15:57:07Z</time></trkpt><trkpt lat="57.806775552257534" lon="-3.982626940755064"><ele>6.0</ele><time>2026-04-29T15:57:09Z</time></trkpt><trkpt lat="57.80677422742327" lon="-3.9828352626031234"><ele>6.0</ele><time>2026-04-29T15:57:11Z</time></trkpt><trkpt lat="57.80678121271198" lon="-3.983063008507847"><ele>6.0</ele><time>2026-04-29T15:57:13Z</time></trkpt><trkpt lat="57.80678510471767" lon="-3.983290645593911"><ele>6.0</ele><time>2026-04-29T15:57:15Z</time></trkpt><trkpt lat="57.80678773429658" lon="-3.983409117949869"><ele>6.0</ele><time>2026-04-29T15:57:16Z</time></trkpt><trkpt lat="57.80679509280444" lon="-3.9836372201851096"><ele>6.0</ele><time>2026-04-29T15:57:18Z</time></trkpt><trkpt lat="57.80680418751109" lon="-3.9837582672150935"><ele>6.0</ele><time>2026-04-29T15:57:19Z</time></trkpt><trkpt lat="57.80681041387391" lon="-3.983882738557594"><ele>6.0</ele><time>2026-04-29T15:57:20Z</time></trkpt><trkpt lat="57.806819047745606" lon="-3.984108295878147"><ele>6.0</ele><time>2026-04-29T15:57:22Z</time></trkpt><trkpt lat="57.80683368451479" lon="-3.9843372261533743"><ele>6.0</ele><time>2026-04-29T15:57:23.999Z</time></trkpt><trkpt lat="57.80684941003621" lon="-3.984552284932183"><ele>6.0</ele><time>2026-04-29T15:57:25.999Z</time></trkpt><trkpt lat="57.8068605357328" lon="-3.9847745722199055"><ele>6.0</ele><time>2026-04-29T15:57:27.999Z</time></trkpt><trkpt lat="57.80687569671538" lon="-3.98499098843983"><ele>6.0</ele><time>2026-04-29T15:57:29.999Z</time></trkpt><trkpt lat="57.80689000412673" lon="-3.9852033206137842"><ele>6.0</ele><time>2026-04-29T15:57:31.999Z</time></trkpt><trkpt lat="57.80690065473315" lon="-3.9854166907868787"><ele>6.0</ele><time>2026-04-29T15:57:33.999Z</time></trkpt><trkpt lat="57.80691728553216" lon="-3.985626455906725"><ele>6.0</ele><time>2026-04-29T15:57:35.999Z</time></trkpt><trkpt lat="57.80693341870658" lon="-3.985843542180166"><ele>6.0</ele><time>2026-04-29T15:57:38Z</time></trkpt><trkpt lat="57.80694911012522" lon="-3.986075483404243"><ele>6.0</ele><time>2026-04-29T15:57:40Z</time></trkpt><trkpt lat="57.80696564810791" lon="-3.9863077242519527"><ele>6.0</ele><time>2026-04-29T15:57:42Z</time></trkpt><trkpt lat="57.8069752556595" lon="-3.986540535063719"><ele>6.0</ele><time>2026-04-29T15:57:44Z</time></trkpt><trkpt lat="57.80699245426788" lon="-3.98677356254137"><ele>6.0</ele><time>2026-04-29T15:57:46Z</time></trkpt><trkpt lat="57.80700213916492" lon="-3.9870022623061145"><ele>6.0</ele><time>2026-04-29T15:57:48Z</time></trkpt><trkpt lat="57.807018467160106" lon="-3.9872242190455407"><ele>6.0</ele><time>2026-04-29T15:57:50Z</time></trkpt><trkpt lat="57.807033058851616" lon="-3.987445513895592"><ele>6.25</ele><time>2026-04-29T15:57:52Z</time></trkpt><trkpt lat="57.80704379108908" lon="-3.987664926800216"><ele>6.5</ele><time>2026-04-29T15:57:54Z</time></trkpt><trkpt lat="57.80705773148138" lon="-3.9878855352574116"><ele>6.75</ele><time>2026-04-29T15:57:56Z</time></trkpt><trkpt lat="57.807070070603146" lon="-3.98810693691431"><ele>7.0</ele><time>2026-04-29T15:57:58Z</time></trkpt><trkpt lat="57.80708385774917" lon="-3.988326096377657"><ele>7.0</ele><time>2026-04-29T15:58:00Z</time></trkpt><trkpt lat="57.807099074247944" lon="-3.9885469691987088"><ele>7.0</ele><time>2026-04-29T15:58:02Z</time></trkpt><trkpt lat="57.807112543210394" lon="-3.9887704541353544"><ele>7.0</ele><time>2026-04-29T15:58:04Z</time></trkpt><trkpt lat="57.8071291041717" lon="-3.9889941416644144"><ele>7.0</ele><time>2026-04-29T15:58:06Z</time></trkpt><trkpt lat="57.80714589803279" lon="-3.9892173773448576"><ele>7.0</ele><time>2026-04-29T15:58:08Z</time></trkpt><trkpt lat="57.807159787553495" lon="-3.989445342248688"><ele>7.0</ele><time>2026-04-29T15:58:10Z</time></trkpt><trkpt lat="57.80717437815108" lon="-3.9896697822750498"><ele>7.0</ele><time>2026-04-29T15:58:12Z</time></trkpt><trkpt lat="57.80718873323241" lon="-3.989891488491839"><ele>7.0</ele><time>2026-04-29T15:58:14Z</time></trkpt><trkpt lat="57.807206682368" lon="-3.9901077852564977"><ele>7.0</ele><time>2026-04-29T15:58:16Z</time></trkpt><trkpt lat="57.80721335500494" lon="-3.990322839828543"><ele>7.0</ele><time>2026-04-29T15:58:18Z</time></trkpt><trkpt lat="57.80724904806436" lon="-3.990514661153983"><ele>7.0</ele><time>2026-04-29T15:58:20Z</time></trkpt><trkpt lat="57.80741632111308" lon="-3.990606881380792"><ele>7.0</ele><time>2026-04-29T15:58:23Z</time></trkpt><trkpt lat="57.80752805805632" lon="-3.990621895970767"><ele>7.0</ele><time>2026-04-29T15:58:25Z</time></trkpt><trkpt lat="57.80762537008152" lon="-3.990604277467684"><ele>6.999999999999999</ele><time>2026-04-29T15:58:27Z</time></trkpt><trkpt lat="57.807635632449234" lon="-3.99030995249131"><ele>6.999999999999999</ele><time>2026-04-29T15:58:30Z</time></trkpt><trkpt lat="57.80760487713661" lon="-3.990187681761932"><ele>7.0</ele><time>2026-04-29T15:58:32Z</time></trkpt><trkpt lat="57.807596941614435" lon="-3.9900438389863027"><ele>7.0</ele><time>2026-04-29T15:58:35Z</time></trkpt><trkpt lat="57.807565768043865" lon="-3.9901493090279225"><ele>7.000000000000001</ele><time>2026-04-29T16:46:41Z</time></trkpt><trkpt lat="57.80758790456897" lon="-3.9902856346338558"><ele>7.0</ele><time>2026-04-29T16:46:57Z</time></trkpt><trkpt lat="57.80764323093486" lon="-3.990371514279548"><ele>7.0</ele><time>2026-04-29T16:47:05Z</time></trkpt><trkpt lat="57.807647205156414" lon="-3.990495630545379"><ele>7.0</ele><time>2026-04-29T16:47:07Z</time></trkpt><trkpt lat="57.80757253805643" lon="-3.990578478631231"><ele>7.000000000000001</ele><time>2026-04-29T16:47:09Z</time></trkpt><trkpt lat="57.807483029446885" lon="-3.990611234095214"><ele>7.0</ele><time>2026-04-29T16:47:11Z</time></trkpt><trkpt lat="57.807395988312734" lon="-3.9906362738767513"><ele>7.0</ele><time>2026-04-29T16:47:13Z</time></trkpt><trkpt lat="57.80732111237309" lon="-3.9906666512060203"><ele>6.999999999999999</ele><time>2026-04-29T16:47:15Z</time></trkpt><trkpt lat="57.80725838524156" lon="-3.99072879877752"><ele>6.999999999999999</ele><time>2026-04-29T16:47:23Z</time></trkpt><trkpt lat="57.80725096746113" lon="-3.9909449257998943"><ele>7.0</ele><time>2026-04-29T16:47:25Z</time></trkpt><trkpt lat="57.807265086311304" lon="-3.991155149266971"><ele>7.0</ele><time>2026-04-29T16:47:27Z</time></trkpt><trkpt lat="57.80728634414795" lon="-3.991370269806206"><ele>7.0</ele><time>2026-04-29T16:47:29Z</time></trkpt><trkpt lat="57.80729583221546" lon="-3.991589871274496"><ele>6.999999999999999</ele><time>2026-04-29T16:47:31Z</time></trkpt><trkpt lat="57.80731015434974" lon="-3.991815249313694"><ele>6.999999999999999</ele><time>2026-04-29T16:47:33Z</time></trkpt><trkpt lat="57.807318264222005" lon="-3.991933094716103"><ele>7.0</ele><time>2026-04-29T16:47:34Z</time></trkpt><trkpt lat="57.807330198286714" lon="-3.9921665483852657"><ele>7.0</ele><time>2026-04-29T16:47:36Z</time></trkpt><trkpt lat="57.80734565775319" lon="-3.9923946241935524"><ele>7.000000000000001</ele><time>2026-04-29T16:47:38Z</time></trkpt><trkpt lat="57.80735957552952" lon="-3.992627966486323"><ele>7.0</ele><time>2026-04-29T16:47:40Z</time></trkpt><trkpt lat="57.80736715640566" lon="-3.992750560501526"><ele>7.0</ele><time>2026-04-29T16:47:41Z</time></trkpt><trkpt lat="57.807375029802444" lon="-3.9928773913889724"><ele>7.0</ele><time>2026-04-29T16:47:42Z</time></trkpt><trkpt lat="57.80738052655772" lon="-3.993002396118127"><ele>7.000000000000001</ele><time>2026-04-29T16:47:43Z</time></trkpt><trkpt lat="57.807392884601235" lon="-3.993132881364386"><ele>7.0</ele><time>2026-04-29T16:47:44Z</time></trkpt><trkpt lat="57.80740205409624" lon="-3.9933554903272523"><ele>7.0</ele><time>2026-04-29T16:47:46Z</time></trkpt><trkpt lat="57.80741921725891" lon="-3.9935606159255226"><ele>6.999999999999999</ele><time>2026-04-29T16:47:48Z</time></trkpt><trkpt lat="57.80743191049677" lon="-3.9937595738533167"><ele>6.999999999999999</ele><time>2026-04-29T16:47:50Z</time></trkpt><trkpt lat="57.807450767859265" lon="-3.993971617260834"><ele>7.0</ele><time>2026-04-29T16:47:52Z</time></trkpt><trkpt lat="57.80746671805136" lon="-3.9941804051484695"><ele>7.0</ele><time>2026-04-29T16:47:54Z</time></trkpt><trkpt lat="57.807478566016584" lon="-3.9943866401760766"><ele>7.0</ele><time>2026-04-29T16:47:56Z</time></trkpt><trkpt lat="57.8074912779658" lon="-3.994596910947893"><ele>7.0</ele><time>2026-04-29T16:47:58Z</time></trkpt><trkpt lat="57.80750069598999" lon="-3.9948049926814195"><ele>7.0</ele><time>2026-04-29T16:48:00Z</time></trkpt><trkpt lat="57.807518411360476" lon="-3.9950134593779567"><ele>7.0</ele><time>2026-04-29T16:48:02Z</time></trkpt><trkpt lat="57.807533217085904" lon="-3.9952308429498897"><ele>7.0</ele><time>2026-04-29T16:48:04Z</time></trkpt><trkpt lat="57.80754769560841" lon="-3.995446586775399"><ele>7.0</ele><time>2026-04-29T16:48:06Z</time></trkpt><trkpt lat="57.80756557306404" lon="-3.9956563382487786"><ele>7.0</ele><time>2026-04-29T16:48:08Z</time></trkpt><trkpt lat="57.807589932642436" lon="-3.995952630407724"><ele>7.0</ele><time>2026-04-29T16:48:11Z</time></trkpt><trkpt lat="57.807591893736856" lon="-3.996147210897651"><ele>7.0</ele><time>2026-04-29T16:48:13Z</time></trkpt><trkpt lat="57.80760661842886" lon="-3.996335976955143"><ele>6.999999999999999</ele><time>2026-04-29T16:48:15Z</time></trkpt><trkpt lat="57.807625910605495" lon="-3.996511921108695"><ele>6.999999999999999</ele><time>2026-04-29T16:48:17Z</time></trkpt><trkpt lat="57.807626767200965" lon="-3.9966942148875164"><ele>7.0</ele><time>2026-04-29T16:48:19Z</time></trkpt><trkpt lat="57.807638661589536" lon="-3.996890652361846"><ele>7.0</ele><time>2026-04-29T16:48:21Z</time></trkpt><trkpt lat="57.80764798005074" lon="-3.9971183469437146"><ele>7.0</ele><time>2026-04-29T16:48:23Z</time></trkpt><trkpt lat="57.80765951826986" lon="-3.997239323415757"><ele>6.999999999999999</ele><time>2026-04-29T16:48:24Z</time></trkpt><trkpt lat="57.80766914088643" lon="-3.997444399615583"><ele>6.999999999999999</ele><time>2026-04-29T16:48:26Z</time></trkpt><trkpt lat="57.80768199071492" lon="-3.997666226259085"><ele>7.0</ele><time>2026-04-29T16:48:28Z</time></trkpt><trkpt lat="57.80768424065982" lon="-3.9977844061354646"><ele>7.0</ele><time>2026-04-29T16:48:29Z</time></trkpt><trkpt lat="57.807698730948395" lon="-3.9980004111061143"><ele>7.0</ele><time>2026-04-29T16:48:31Z</time></trkpt><trkpt lat="57.80770569293684" lon="-3.998118097310975"><ele>7.0</ele><time>2026-04-29T16:48:32Z</time></trkpt><trkpt lat="57.80770995953447" lon="-3.998237428220654"><ele>7.0</ele><time>2026-04-29T16:48:33Z</time></trkpt><trkpt lat="57.80771957620019" lon="-3.9983602165211747"><ele>7.0</ele><time>2026-04-29T16:48:34Z</time></trkpt><trkpt lat="57.80772581707559" lon="-3.998478352454583"><ele>7.0</ele><time>2026-04-29T16:48:35Z</time></trkpt><trkpt lat="57.80773064310935" lon="-3.9986018043115945"><ele>7.0</ele><time>2026-04-29T16:48:36Z</time></trkpt><trkpt lat="57.80774418343846" lon="-3.998838756898404"><ele>7.0</ele><time>2026-04-29T16:48:38Z</time></trkpt><trkpt lat="57.807753096588506" lon="-3.9989620076743924"><ele>7.0</ele><time>2026-04-29T16:48:39Z</time></trkpt><trkpt lat="57.80775186045022" lon="-3.999087898376443"><ele>7.0</ele><time>2026-04-29T16:48:40Z</time></trkpt><trkpt lat="57.80776695883177" lon="-3.9992039909350794"><ele>7.0</ele><time>2026-04-29T16:48:41Z</time></trkpt><trkpt lat="57.807774484061255" lon="-3.9993223067989456"><ele>7.0</ele><time>2026-04-29T16:48:42Z</time></trkpt><trkpt lat="57.80777766759183" lon="-3.999444329518783"><ele>7.0</ele><time>2026-04-29T16:48:43Z</time></trkpt><trkpt lat="57.80778625752306" lon="-3.99956667960068"><ele>7.0</ele><time>2026-04-29T16:48:44Z</time></trkpt><trkpt lat="57.807801500346315" lon="-3.999797585448472"><ele>7.0</ele><time>2026-04-29T16:48:46Z</time></trkpt><trkpt lat="57.80780649103429" lon="-3.9999183831096383"><ele>7.0</ele><time>2026-04-29T16:48:47Z</time></trkpt><trkpt lat="57.80782394455236" lon="-4.000154591588722"><ele>7.0</ele><time>2026-04-29T16:48:49Z</time></trkpt><trkpt lat="57.80783751918174" lon="-4.0003823931972065"><ele>7.0</ele><time>2026-04-29T16:48:51Z</time></trkpt><trkpt lat="57.8078552002751" lon="-4.000604616019608"><ele>7.0</ele><time>2026-04-29T16:48:53Z</time></trkpt><trkpt lat="57.807867538659345" lon="-4.000825888071033"><ele>7.0</ele><time>2026-04-29T16:48:55Z</time></trkpt><trkpt lat="57.807882701454034" lon="-4.0010478310085595"><ele>7.0</ele><time>2026-04-29T16:48:57Z</time></trkpt><trkpt lat="57.8078993677242" lon="-4.001282330114832"><ele>7.0</ele><time>2026-04-29T16:48:59Z</time></trkpt><trkpt lat="57.807911989022394" lon="-4.001505176602593"><ele>7.0</ele><time>2026-04-29T16:49:01Z</time></trkpt><trkpt lat="57.80792364676032" lon="-4.0017306579377125"><ele>6.8</ele><time>2026-04-29T16:49:03Z</time></trkpt><trkpt lat="57.80793898731948" lon="-4.001956191702198"><ele>6.6</ele><time>2026-04-29T16:49:05Z</time></trkpt><trkpt lat="57.80795515488966" lon="-4.002180125010782"><ele>6.3999999999999995</ele><time>2026-04-29T16:49:07Z</time></trkpt><trkpt lat="57.807967669365205" lon="-4.002423870728319"><ele>6.199999999999999</ele><time>2026-04-29T16:49:09Z</time></trkpt><trkpt lat="57.807977857519695" lon="-4.002544874936006"><ele>6.0</ele><time>2026-04-29T16:49:10Z</time></trkpt><trkpt lat="57.80798713206095" lon="-4.002664082348738"><ele>6.0</ele><time>2026-04-29T16:49:11Z</time></trkpt><trkpt lat="57.80799601841715" lon="-4.0028862473022"><ele>6.0</ele><time>2026-04-29T16:49:13Z</time></trkpt><trkpt lat="57.808011584738914" lon="-4.003111614779091"><ele>6.0</ele><time>2026-04-29T16:49:15Z</time></trkpt><trkpt lat="57.808022188345625" lon="-4.003340517800124"><ele>6.0</ele><time>2026-04-29T16:49:17Z</time></trkpt><trkpt lat="57.808032253546834" lon="-4.003459267652056"><ele>6.0</ele><time>2026-04-29T16:49:18Z</time></trkpt><trkpt lat="57.80804909020455" lon="-4.00368344000586"><ele>6.25</ele><time>2026-04-29T16:49:20Z</time></trkpt><trkpt lat="57.80806662843055" lon="-4.0039043071854765"><ele>6.5</ele><time>2026-04-29T16:49:22Z</time></trkpt><trkpt lat="57.80807345038324" lon="-4.004129187300285"><ele>6.75</ele><time>2026-04-29T16:49:24Z</time></trkpt><trkpt lat="57.80808708382413" lon="-4.0043415251261845"><ele>7.0</ele><time>2026-04-29T16:49:26Z</time></trkpt><trkpt lat="57.80810148606228" lon="-4.004561332476965"><ele>7.0</ele><time>2026-04-29T16:49:28Z</time></trkpt><trkpt lat="57.80811524456894" lon="-4.004778101911899"><ele>7.0</ele><time>2026-04-29T16:49:30Z</time></trkpt><trkpt lat="57.80812684542401" lon="-4.004989976959961"><ele>7.0</ele><time>2026-04-29T16:49:32Z</time></trkpt><trkpt lat="57.80814326943879" lon="-4.005217099066189"><ele>7.0</ele><time>2026-04-29T16:49:34Z</time></trkpt><trkpt lat="57.808159750617634" lon="-4.00545041777459"><ele>7.000000000000001</ele><time>2026-04-29T16:49:36Z</time></trkpt><trkpt lat="57.80816451421453" lon="-4.005568733296445"><ele>7.0</ele><time>2026-04-29T16:49:37Z</time></trkpt><trkpt lat="57.808169929323284" lon="-4.005687445528594"><ele>7.0</ele><time>2026-04-29T16:49:38Z</time></trkpt><trkpt lat="57.80817780030105" lon="-4.0058098863658165"><ele>7.0</ele><time>2026-04-29T16:49:39Z</time></trkpt><trkpt lat="57.80819120117792" lon="-4.0060381135062615"><ele>7.000000000000001</ele><time>2026-04-29T16:49:41Z</time></trkpt><trkpt lat="57.80821241598627" lon="-4.006239769467256"><ele>7.0</ele><time>2026-04-29T16:49:43Z</time></trkpt><trkpt lat="57.8082183539325" lon="-4.006367890698017"><ele>7.000000000000001</ele><time>2026-04-29T16:49:44Z</time></trkpt><trkpt lat="57.80822281631531" lon="-4.0064920084992615"><ele>7.0</ele><time>2026-04-29T16:49:45Z</time></trkpt><trkpt lat="57.80823056391091" lon="-4.006612935309716"><ele>7.0</ele><time>2026-04-29T16:49:46Z</time></trkpt><trkpt lat="57.80824346092124" lon="-4.0068361923106"><ele>7.0</ele><time>2026-04-29T16:49:48Z</time></trkpt><trkpt lat="57.80825005868974" lon="-4.006954539061892"><ele>7.000000000000001</ele><time>2026-04-29T16:49:49Z</time></trkpt><trkpt lat="57.808267266779275" lon="-4.007184153741249"><ele>7.0</ele><time>2026-04-29T16:49:51Z</time></trkpt><trkpt lat="57.80827504053204" lon="-4.007404029603142"><ele>7.0</ele><time>2026-04-29T16:49:53Z</time></trkpt><trkpt lat="57.80829189529084" lon="-4.0076328178296015"><ele>6.999999999999999</ele><time>2026-04-29T16:49:54.998Z</time></trkpt><trkpt lat="57.80831048553798" lon="-4.007832534125359"><ele>6.999999999999999</ele><time>2026-04-29T16:49:56.998Z</time></trkpt><trkpt lat="57.80831903915175" lon="-4.007950529799674"><ele>7.0</ele><time>2026-04-29T16:49:57.998Z</time></trkpt><trkpt lat="57.80832902795229" lon="-4.008167388552261"><ele>7.0</ele><time>2026-04-29T16:49:59.998Z</time></trkpt><trkpt lat="57.80834151970184" lon="-4.008379988439604"><ele>7.0</ele><time>2026-04-29T16:50:01.998Z</time></trkpt><trkpt lat="57.808353811420446" lon="-4.008588370120985"><ele>7.0</ele><time>2026-04-29T16:50:03.998Z</time></trkpt><trkpt lat="57.80836950406946" lon="-4.008800129709774"><ele>7.0</ele><time>2026-04-29T16:50:05.998Z</time></trkpt><trkpt lat="57.808384360426324" lon="-4.009020193928961"><ele>7.0</ele><time>2026-04-29T16:50:07.998Z</time></trkpt><trkpt lat="57.808398451558176" lon="-4.009237320695583"><ele>7.0</ele><time>2026-04-29T16:50:09.998Z</time></trkpt><trkpt lat="57.80840844944467" lon="-4.00944543276726"><ele>6.999999999999999</ele><time>2026-04-29T16:50:11.998Z</time></trkpt><trkpt lat="57.80841900496548" lon="-4.0096526358124125"><ele>6.999999999999999</ele><time>2026-04-29T16:50:13.999Z</time></trkpt><trkpt lat="57.808434118628796" lon="-4.009827170888539"><ele>7.0</ele><time>2026-04-29T16:50:15.999Z</time></trkpt><trkpt lat="57.80844053853515" lon="-4.010017254559646"><ele>7.0</ele><time>2026-04-29T16:50:17.999Z</time></trkpt><trkpt lat="57.80845905575109" lon="-4.01022359795691"><ele>7.0</ele><time>2026-04-29T16:50:19.999Z</time></trkpt><trkpt lat="57.8084675575313" lon="-4.010431977606294"><ele>7.0</ele><time>2026-04-29T16:50:21.999Z</time></trkpt><trkpt lat="57.808483609896335" lon="-4.010640973745505"><ele>7.0</ele><time>2026-04-29T16:50:23.999Z</time></trkpt><trkpt lat="57.808498237804486" lon="-4.010846581573939"><ele>7.0</ele><time>2026-04-29T16:50:25.999Z</time></trkpt><trkpt lat="57.80851265547783" lon="-4.0110665478885865"><ele>7.0</ele><time>2026-04-29T16:50:27.999Z</time></trkpt><trkpt lat="57.808526777275205" lon="-4.011286925977097"><ele>7.0</ele><time>2026-04-29T16:50:29.999Z</time></trkpt><trkpt lat="57.8085403414238" lon="-4.0115030970976395"><ele>7.0</ele><time>2026-04-29T16:50:31.999Z</time></trkpt><trkpt lat="57.80855681491898" lon="-4.011728138865979"><ele>7.0</ele><time>2026-04-29T16:50:33.999Z</time></trkpt><trkpt lat="57.808582260441966" lon="-4.012063940972176"><ele>7.0</ele><time>2026-04-29T16:50:36.999Z</time></trkpt><trkpt lat="57.80859152052831" lon="-4.012277785122558"><ele>7.0</ele><time>2026-04-29T16:50:38.999Z</time></trkpt><trkpt lat="57.80860370210833" lon="-4.012497743465085"><ele>7.0</ele><time>2026-04-29T16:50:40.999Z</time></trkpt><trkpt lat="57.80861825715494" lon="-4.012704748837821"><ele>7.0</ele><time>2026-04-29T16:50:42.999Z</time></trkpt><trkpt lat="57.808631985809335" lon="-4.012925629014863"><ele>6.75</ele><time>2026-04-29T16:50:44.999Z</time></trkpt><trkpt lat="57.808644341996434" lon="-4.0131412779882"><ele>6.5</ele><time>2026-04-29T16:50:46.999Z</time></trkpt><trkpt lat="57.8086564485743" lon="-4.013362680495298"><ele>6.25</ele><time>2026-04-29T16:50:48.999Z</time></trkpt><trkpt lat="57.80866899135806" lon="-4.013584196243473"><ele>6.0</ele><time>2026-04-29T16:50:50.999Z</time></trkpt><trkpt lat="57.80868445844746" lon="-4.013803216204505"><ele>6.0</ele><time>2026-04-29T16:50:52.999Z</time></trkpt><trkpt lat="57.80869381905894" lon="-4.0140296514531295"><ele>6.0</ele><time>2026-04-29T16:50:54.999Z</time></trkpt><trkpt lat="57.80870435337822" lon="-4.014248424594393"><ele>6.0</ele><time>2026-04-29T16:50:56.999Z</time></trkpt><trkpt lat="57.80872185020459" lon="-4.014469962921293"><ele>6.0</ele><time>2026-04-29T16:50:58.999Z</time></trkpt><trkpt lat="57.80874110475513" lon="-4.014696560474038"><ele>6.0</ele><time>2026-04-29T16:51:00.999Z</time></trkpt><trkpt lat="57.80874661178627" lon="-4.014818034064996"><ele>6.0</ele><time>2026-04-29T16:51:01.999Z</time></trkpt><trkpt lat="57.80875826069879" lon="-4.015044591557982"><ele>6.0</ele><time>2026-04-29T16:51:03.999Z</time></trkpt><trkpt lat="57.8087700579162" lon="-4.015275428299872"><ele>6.0</ele><time>2026-04-29T16:51:05.999Z</time></trkpt><trkpt lat="57.808779178244556" lon="-4.015392838545772"><ele>6.0</ele><time>2026-04-29T16:51:06.999Z</time></trkpt><trkpt lat="57.808792669190126" lon="-4.015618264789402"><ele>6.199999999999999</ele><time>2026-04-29T16:51:08.999Z</time></trkpt><trkpt lat="57.808807032873965" lon="-4.015840725953707"><ele>6.3999999999999995</ele><time>2026-04-29T16:51:10.999Z</time></trkpt><trkpt lat="57.80882338024296" lon="-4.016064486862601"><ele>6.6</ele><time>2026-04-29T16:51:12.999Z</time></trkpt><trkpt lat="57.808836878201724" lon="-4.016285888515811"><ele>6.8</ele><time>2026-04-29T16:51:14.999Z</time></trkpt><trkpt lat="57.80884250692232" lon="-4.016403602565603"><ele>7.0</ele><time>2026-04-29T16:51:15.999Z</time></trkpt><trkpt lat="57.808855735883974" lon="-4.016631918548232"><ele>6.8</ele><time>2026-04-29T16:51:17.999Z</time></trkpt><trkpt lat="57.808860785659355" lon="-4.016750461445314"><ele>6.6</ele><time>2026-04-29T16:51:18.999Z</time></trkpt><trkpt lat="57.80887570202789" lon="-4.016982168300966"><ele>6.3999999999999995</ele><time>2026-04-29T16:51:20.999Z</time></trkpt><trkpt lat="57.80888719560253" lon="-4.017209412114727"><ele>6.199999999999999</ele><time>2026-04-29T16:51:22.999Z</time></trkpt><trkpt lat="57.80890294253294" lon="-4.017441159068769"><ele>6.0</ele><time>2026-04-29T16:51:24.999Z</time></trkpt><trkpt lat="57.808919224427655" lon="-4.017670634324208"><ele>6.0</ele><time>2026-04-29T16:51:26.999Z</time></trkpt><trkpt lat="57.808927337273076" lon="-4.017787815310543"><ele>6.0</ele><time>2026-04-29T16:51:28Z</time></trkpt><trkpt lat="57.808943586327814" lon="-4.0180198725553975"><ele>6.0</ele><time>2026-04-29T16:51:30Z</time></trkpt><trkpt lat="57.80895780488477" lon="-4.018249046544524"><ele>6.0</ele><time>2026-04-29T16:51:32Z</time></trkpt><trkpt lat="57.8089748312996" lon="-4.018484665064118"><ele>6.0</ele><time>2026-04-29T16:51:34Z</time></trkpt><trkpt lat="57.80898356638848" lon="-4.018711462676647"><ele>6.0</ele><time>2026-04-29T16:51:36Z</time></trkpt><trkpt lat="57.80899842582188" lon="-4.018943546223628"><ele>6.0</ele><time>2026-04-29T16:51:38Z</time></trkpt><trkpt lat="57.8090143114779" lon="-4.01916868095298"><ele>6.0</ele><time>2026-04-29T16:51:40Z</time></trkpt><trkpt lat="57.809027642095224" lon="-4.019397439847203"><ele>6.0</ele><time>2026-04-29T16:51:42Z</time></trkpt><trkpt lat="57.8090395696015" lon="-4.019623680269091"><ele>6.0</ele><time>2026-04-29T16:51:44Z</time></trkpt><trkpt lat="57.8090556652418" lon="-4.019849379980471"><ele>6.0</ele><time>2026-04-29T16:51:46Z</time></trkpt><trkpt lat="57.80906606576756" lon="-4.02006421050774"><ele>6.0</ele><time>2026-04-29T16:51:48Z</time></trkpt><trkpt lat="57.809078497182284" lon="-4.0202886977483505"><ele>6.0</ele><time>2026-04-29T16:51:50Z</time></trkpt><trkpt lat="57.8090925424128" lon="-4.020510256385616"><ele>6.25</ele><time>2026-04-29T16:51:52Z</time></trkpt><trkpt lat="57.80910884582675" lon="-4.0207281691471435"><ele>6.5</ele><time>2026-04-29T16:51:54Z</time></trkpt><trkpt lat="57.809122250711326" lon="-4.020944759029894"><ele>6.75</ele><time>2026-04-29T16:51:56Z</time></trkpt><trkpt lat="57.80913342861281" lon="-4.021169471460227"><ele>7.0</ele><time>2026-04-29T16:51:58Z</time></trkpt><trkpt lat="57.8091503218864" lon="-4.021393006145969"><ele>7.25</ele><time>2026-04-29T16:51:59.999Z</time></trkpt><trkpt lat="57.809161863974445" lon="-4.021620459043917"><ele>7.5</ele><time>2026-04-29T16:52:01.999Z</time></trkpt><trkpt lat="57.80917393343111" lon="-4.021842222653434"><ele>7.75</ele><time>2026-04-29T16:52:03.999Z</time></trkpt><trkpt lat="57.80919257087887" lon="-4.022069472351339"><ele>8.0</ele><time>2026-04-29T16:52:05.999Z</time></trkpt><trkpt lat="57.809205214294046" lon="-4.0222927079124"><ele>8.0</ele><time>2026-04-29T16:52:07.999Z</time></trkpt><trkpt lat="57.80921581649826" lon="-4.0225187721273965"><ele>8.0</ele><time>2026-04-29T16:52:09.999Z</time></trkpt><trkpt lat="57.80923240810798" lon="-4.022751813853632"><ele>8.0</ele><time>2026-04-29T16:52:11.999Z</time></trkpt><trkpt lat="57.80924564947809" lon="-4.022988889582168"><ele>8.0</ele><time>2026-04-29T16:52:13.999Z</time></trkpt><trkpt lat="57.80925342996565" lon="-4.023108771276655"><ele>8.0</ele><time>2026-04-29T16:52:14.999Z</time></trkpt><trkpt lat="57.80926026382083" lon="-4.023227320121554"><ele>8.0</ele><time>2026-04-29T16:52:15.999Z</time></trkpt><trkpt lat="57.80926741319019" lon="-4.023348986859668"><ele>7.999999999999999</ele><time>2026-04-29T16:52:17Z</time></trkpt><trkpt lat="57.80927357050087" lon="-4.023467657729839"><ele>8.0</ele><time>2026-04-29T16:52:18Z</time></trkpt><trkpt lat="57.809281115417605" lon="-4.023587358194616"><ele>8.0</ele><time>2026-04-29T16:52:19Z</time></trkpt><trkpt lat="57.80928941097754" lon="-4.023708443369689"><ele>7.999999999999999</ele><time>2026-04-29T16:52:20Z</time></trkpt><trkpt lat="57.809298666870475" lon="-4.023828341348482"><ele>8.0</ele><time>2026-04-29T16:52:21Z</time></trkpt><trkpt lat="57.80930754880012" lon="-4.023952513780809"><ele>8.0</ele><time>2026-04-29T16:52:22Z</time></trkpt><trkpt lat="57.80931821420079" lon="-4.024079146717787"><ele>7.999999999999999</ele><time>2026-04-29T16:52:23Z</time></trkpt><trkpt lat="57.80933270492307" lon="-4.024314460470857"><ele>8.0</ele><time>2026-04-29T16:52:25Z</time></trkpt><trkpt lat="57.809340026745666" lon="-4.02444014951945"><ele>8.0</ele><time>2026-04-29T16:52:26Z</time></trkpt><trkpt lat="57.80934653290376" lon="-4.02456623369735"><ele>8.0</ele><time>2026-04-29T16:52:27Z</time></trkpt><trkpt lat="57.80935024575316" lon="-4.024692279055932"><ele>7.999999999999999</ele><time>2026-04-29T16:52:28Z</time></trkpt><trkpt lat="57.80936008211764" lon="-4.024817133157223"><ele>8.0</ele><time>2026-04-29T16:52:29Z</time></trkpt><trkpt lat="57.80936639357865" lon="-4.02494640543707"><ele>7.857142857142857</ele><time>2026-04-29T16:52:30Z</time></trkpt><trkpt lat="57.80937458438547" lon="-4.025074544295833"><ele>7.7142857142857135</ele><time>2026-04-29T16:52:31Z</time></trkpt><trkpt lat="57.80938517913855" lon="-4.025203785287995"><ele>7.571428571428571</ele><time>2026-04-29T16:52:32Z</time></trkpt><trkpt lat="57.809395078441504" lon="-4.025334435772725"><ele>7.428571428571429</ele><time>2026-04-29T16:52:33Z</time></trkpt><trkpt lat="57.80940205304768" lon="-4.025457605592929"><ele>7.285714285714286</ele><time>2026-04-29T16:52:34Z</time></trkpt><trkpt lat="57.80941148960971" lon="-4.02559556002913"><ele>7.142857142857142</ele><time>2026-04-29T16:52:35Z</time></trkpt><trkpt lat="57.809421873757614" lon="-4.025727344410939"><ele>7.0</ele><time>2026-04-29T16:52:36Z</time></trkpt><trkpt lat="57.809430041674" lon="-4.025859020880223"><ele>6.857142857142857</ele><time>2026-04-29T16:52:37Z</time></trkpt><trkpt lat="57.80943577496537" lon="-4.025987946128729"><ele>6.714285714285714</ele><time>2026-04-29T16:52:38Z</time></trkpt><trkpt lat="57.809445850296036" lon="-4.02612208599407"><ele>6.571428571428571</ele><time>2026-04-29T16:52:39Z</time></trkpt><trkpt lat="57.80945099400779" lon="-4.0262549316097145"><ele>6.428571428571429</ele><time>2026-04-29T16:52:40Z</time></trkpt><trkpt lat="57.80946149743997" lon="-4.026389597897979"><ele>6.285714285714286</ele><time>2026-04-29T16:52:41Z</time></trkpt><trkpt lat="57.80946730807489" lon="-4.026520004574909"><ele>6.142857142857142</ele><time>2026-04-29T16:52:42Z</time></trkpt><trkpt lat="57.809476102378184" lon="-4.02665726088531"><ele>6.0</ele><time>2026-04-29T16:52:43Z</time></trkpt><trkpt lat="57.809484086246094" lon="-4.0267991185324545"><ele>6.0</ele><time>2026-04-29T16:52:44Z</time></trkpt><trkpt lat="57.80949086072379" lon="-4.0269399538605235"><ele>6.0</ele><time>2026-04-29T16:52:45Z</time></trkpt><trkpt lat="57.80949416849067" lon="-4.027082117760117"><ele>6.0</ele><time>2026-04-29T16:52:46Z</time></trkpt><trkpt lat="57.80950257040922" lon="-4.027228732460317"><ele>6.0</ele><time>2026-04-29T16:52:47Z</time></trkpt><trkpt lat="57.80950882377897" lon="-4.027373498476083"><ele>6.0</ele><time>2026-04-29T16:52:48Z</time></trkpt><trkpt lat="57.809519889977864" lon="-4.0275272725042806"><ele>6.0</ele><time>2026-04-29T16:52:49Z</time></trkpt><trkpt lat="57.80952189953863" lon="-4.027668607082803"><ele>6.166666666666667</ele><time>2026-04-29T16:52:50Z</time></trkpt><trkpt lat="57.809520020276764" lon="-4.027810669259768"><ele>6.333333333333334</ele><time>2026-04-29T16:52:51Z</time></trkpt><trkpt lat="57.80951793194112" lon="-4.027954603011611"><ele>6.5</ele><time>2026-04-29T16:52:52Z</time></trkpt><trkpt lat="57.80951724656248" lon="-4.028098629443075"><ele>6.666666666666667</ele><time>2026-04-29T16:52:53Z</time></trkpt><trkpt lat="57.809515597512906" lon="-4.028246672908839"><ele>6.833333333333334</ele><time>2026-04-29T16:52:54Z</time></trkpt><trkpt lat="57.809508260677056" lon="-4.028390824193472"><ele>7.0</ele><time>2026-04-29T16:52:55Z</time></trkpt><trkpt lat="57.809500428583085" lon="-4.028536342203557"><ele>7.000000000000001</ele><time>2026-04-29T16:52:56Z</time></trkpt><trkpt lat="57.809494597403614" lon="-4.028681741429627"><ele>7.0</ele><time>2026-04-29T16:52:57Z</time></trkpt><trkpt lat="57.80949312362082" lon="-4.028827667934264"><ele>7.0</ele><time>2026-04-29T16:52:58Z</time></trkpt><trkpt lat="57.80948693997307" lon="-4.028974771298521"><ele>7.0</ele><time>2026-04-29T16:52:59Z</time></trkpt><trkpt lat="57.8094789081172" lon="-4.0291237936454385"><ele>7.000000000000001</ele><time>2026-04-29T16:53:00Z</time></trkpt><trkpt lat="57.80947365093165" lon="-4.029268320691283"><ele>7.0</ele><time>2026-04-29T16:53:01Z</time></trkpt><trkpt lat="57.809463824548274" lon="-4.029413823174644"><ele>6.666666666666667</ele><time>2026-04-29T16:53:02Z</time></trkpt><trkpt lat="57.80945502324158" lon="-4.029559998732046"><ele>6.333333333333334</ele><time>2026-04-29T16:53:03Z</time></trkpt><trkpt lat="57.80944382865124" lon="-4.029704324363228"><ele>6.0</ele><time>2026-04-29T16:53:04Z</time></trkpt><trkpt lat="57.80943210960438" lon="-4.02984646159064"><ele>5.666666666666667</ele><time>2026-04-29T16:53:05Z</time></trkpt><trkpt lat="57.80942259700707" lon="-4.029987318972837"><ele>5.333333333333334</ele><time>2026-04-29T16:53:06Z</time></trkpt><trkpt lat="57.809409799021516" lon="-4.030129338865129"><ele>5.0</ele><time>2026-04-29T16:53:07Z</time></trkpt><trkpt lat="57.809398990715394" lon="-4.030270870905123"><ele>4.857142857142857</ele><time>2026-04-29T16:53:08Z</time></trkpt><trkpt lat="57.809385340362695" lon="-4.030401237767647"><ele>4.714285714285714</ele><time>2026-04-29T16:53:09Z</time></trkpt><trkpt lat="57.809366781998655" lon="-4.030531668894029"><ele>4.571428571428571</ele><time>2026-04-29T16:53:10Z</time></trkpt><trkpt lat="57.8093515040577" lon="-4.030662756942054"><ele>4.428571428571429</ele><time>2026-04-29T16:53:11Z</time></trkpt><trkpt lat="57.80933585370184" lon="-4.0307930962482885"><ele>4.285714285714286</ele><time>2026-04-29T16:53:12Z</time></trkpt><trkpt lat="57.80931745594414" lon="-4.030917473868691"><ele>4.142857142857142</ele><time>2026-04-29T16:53:13Z</time></trkpt><trkpt lat="57.80929740698109" lon="-4.031044642088846"><ele>4.0</ele><time>2026-04-29T16:53:14Z</time></trkpt><trkpt lat="57.80927770762582" lon="-4.031167449114562"><ele>4.0</ele><time>2026-04-29T16:53:15Z</time></trkpt><trkpt lat="57.80925849736636" lon="-4.031294872309887"><ele>3.9999999999999996</ele><time>2026-04-29T16:53:16Z</time></trkpt><trkpt lat="57.80924052061751" lon="-4.031430791522079"><ele>4.0</ele><time>2026-04-29T16:53:17Z</time></trkpt><trkpt lat="57.80921809127542" lon="-4.0315649993543685"><ele>4.0</ele><time>2026-04-29T16:53:18Z</time></trkpt><trkpt lat="57.809194222941805" lon="-4.031691268101459"><ele>3.9999999999999996</ele><time>2026-04-29T16:53:19Z</time></trkpt><trkpt lat="57.8091751574626" lon="-4.031816589801954"><ele>4.0</ele><time>2026-04-29T16:53:20Z</time></trkpt><trkpt lat="57.809153030546675" lon="-4.0319380784635355"><ele>4.0</ele><time>2026-04-29T16:53:21Z</time></trkpt><trkpt lat="57.809132750937806" lon="-4.032065340535409"><ele>4.142857142857142</ele><time>2026-04-29T16:53:22Z</time></trkpt><trkpt lat="57.809110583603676" lon="-4.0321919321290025"><ele>4.285714285714286</ele><time>2026-04-29T16:53:23Z</time></trkpt><trkpt lat="57.80908816932992" lon="-4.032316363722651"><ele>4.428571428571429</ele><time>2026-04-29T16:53:24Z</time></trkpt><trkpt lat="57.80906763000528" lon="-4.032438646573872"><ele>4.571428571428571</ele><time>2026-04-29T16:53:25Z</time></trkpt><trkpt lat="57.80904525612449" lon="-4.032560640447714"><ele>4.714285714285714</ele><time>2026-04-29T16:53:26Z</time></trkpt><trkpt lat="57.80902108193665" lon="-4.032680952319079"><ele>4.857142857142857</ele><time>2026-04-29T16:53:27Z</time></trkpt><trkpt lat="57.80900076363097" lon="-4.032803722996903"><ele>5.0</ele><time>2026-04-29T16:53:28Z</time></trkpt><trkpt lat="57.80898008609749" lon="-4.032923815987651"><ele>5.166666666666667</ele><time>2026-04-29T16:53:29Z</time></trkpt><trkpt lat="57.808961745699904" lon="-4.0330417707487145"><ele>5.333333333333334</ele><time>2026-04-29T16:53:30Z</time></trkpt><trkpt lat="57.80894378303441" lon="-4.03315932849444"><ele>5.5</ele><time>2026-04-29T16:53:31Z</time></trkpt><trkpt lat="57.80892154265747" lon="-4.03327425056522"><ele>5.666666666666667</ele><time>2026-04-29T16:53:32Z</time></trkpt><trkpt lat="57.80887960252193" lon="-4.033496655538402"><ele>5.833333333333333</ele><time>2026-04-29T16:53:34Z</time></trkpt><trkpt lat="57.80885958321483" lon="-4.033614266162267"><ele>6.0</ele><time>2026-04-29T16:53:35Z</time></trkpt><trkpt lat="57.80882483577365" lon="-4.033832989932495"><ele>6.199999999999999</ele><time>2026-04-29T16:53:37Z</time></trkpt><trkpt lat="57.808808732775546" lon="-4.033948532534708"><ele>6.3999999999999995</ele><time>2026-04-29T16:53:38Z</time></trkpt><trkpt lat="57.8087762218937" lon="-4.034163340431786"><ele>6.6</ele><time>2026-04-29T16:53:40Z</time></trkpt><trkpt lat="57.80875189385702" lon="-4.034382755995591"><ele>6.8</ele><time>2026-04-29T16:53:42Z</time></trkpt><trkpt lat="57.80873455629989" lon="-4.034595259160683"><ele>7.0</ele><time>2026-04-29T16:53:44Z</time></trkpt><trkpt lat="57.80872543641376" lon="-4.034809826809744"><ele>7.0</ele><time>2026-04-29T16:53:46Z</time></trkpt><trkpt lat="57.80871074466567" lon="-4.035014904960669"><ele>6.999999999999999</ele><time>2026-04-29T16:53:48Z</time></trkpt><trkpt lat="57.80869563726046" lon="-4.035217090213517"><ele>6.999999999999999</ele><time>2026-04-29T16:53:50Z</time></trkpt><trkpt lat="57.80867674394942" lon="-4.035416169810641"><ele>7.0</ele><time>2026-04-29T16:53:52Z</time></trkpt><trkpt lat="57.808650069440986" lon="-4.03560885956199"><ele>7.0</ele><time>2026-04-29T16:53:54.001Z</time></trkpt><trkpt lat="57.80861231419755" lon="-4.035750666196692"><ele>7.0</ele><time>2026-04-29T16:53:56.001Z</time></trkpt><trkpt lat="57.808560618018525" lon="-4.035872979710499"><ele>6.999999999999999</ele><time>2026-04-29T16:53:58.001Z</time></trkpt><trkpt lat="57.808509638323024" lon="-4.0360455963038175"><ele>6.999999999999999</ele><time>2026-04-29T16:54:00.001Z</time></trkpt><trkpt lat="57.80845792604512" lon="-4.0362363030066515"><ele>7.0</ele><time>2026-04-29T16:54:02.001Z</time></trkpt><trkpt lat="57.80840383827428" lon="-4.036444732452393"><ele>7.0</ele><time>2026-04-29T16:54:04.001Z</time></trkpt><trkpt lat="57.80837522161346" lon="-4.0365503941737835"><ele>7.166666666666667</ele><time>2026-04-29T16:54:05.001Z</time></trkpt><trkpt lat="57.80833689703436" lon="-4.0367744843498805"><ele>7.333333333333334</ele><time>2026-04-29T16:54:07.001Z</time></trkpt><trkpt lat="57.808292281397854" lon="-4.036996948860004"><ele>7.5</ele><time>2026-04-29T16:54:09.001Z</time></trkpt><trkpt lat="57.808272281803625" lon="-4.037111167753746"><ele>7.666666666666666</ele><time>2026-04-29T16:54:10.001Z</time></trkpt><trkpt lat="57.80825440106518" lon="-4.037230319776555"><ele>7.833333333333333</ele><time>2026-04-29T16:54:11.001Z</time></trkpt><trkpt lat="57.808235984580264" lon="-4.037345390876634"><ele>8.0</ele><time>2026-04-29T16:54:12.001Z</time></trkpt><trkpt lat="57.80819893134495" lon="-4.037564400542471"><ele>8.0</ele><time>2026-04-29T16:54:14.001Z</time></trkpt><trkpt lat="57.8081616579943" lon="-4.037786455108174"><ele>8.0</ele><time>2026-04-29T16:54:16.001Z</time></trkpt><trkpt lat="57.808127653017394" lon="-4.0379975259804715"><ele>8.0</ele><time>2026-04-29T16:54:18.001Z</time></trkpt><trkpt lat="57.808095952285875" lon="-4.038207032489492"><ele>8.0</ele><time>2026-04-29T16:54:20.001Z</time></trkpt><trkpt lat="57.80806585007497" lon="-4.038411145915252"><ele>8.0</ele><time>2026-04-29T16:54:22.001Z</time></trkpt><trkpt lat="57.8080373147775" lon="-4.038617845124326"><ele>8.0</ele><time>2026-04-29T16:54:24.001Z</time></trkpt><trkpt lat="57.80799279859894" lon="-4.038787274212398"><ele>8.0</ele><time>2026-04-29T16:54:26.001Z</time></trkpt><trkpt lat="57.808084700803924" lon="-4.038913902540822"><ele>8.0</ele><time>2026-04-29T16:54:27.001Z</time></trkpt><trkpt lat="57.808163434238324" lon="-4.039072261944349"><ele>8.0</ele><time>2026-04-29T16:54:29.001Z</time></trkpt><trkpt lat="57.80822780680682" lon="-4.039225274956993"><ele>7.75</ele><time>2026-04-29T16:54:31.001Z</time></trkpt><trkpt lat="57.808299807727735" lon="-4.0393823698010225"><ele>7.5</ele><time>2026-04-29T16:54:33.001Z</time></trkpt><trkpt lat="57.808371580417045" lon="-4.039551061307851"><ele>7.25</ele><time>2026-04-29T16:54:35.001Z</time></trkpt><trkpt lat="57.80844838563109" lon="-4.039726323736872"><ele>7.0</ele><time>2026-04-29T16:54:37.001Z</time></trkpt><trkpt lat="57.80852410610682" lon="-4.039900927547049"><ele>7.0</ele><time>2026-04-29T16:54:39.001Z</time></trkpt><trkpt lat="57.808597687709664" lon="-4.04007351309248"><ele>6.999999999999999</ele><time>2026-04-29T16:54:41.001Z</time></trkpt><trkpt lat="57.808667361498145" lon="-4.040236623839881"><ele>6.999999999999999</ele><time>2026-04-29T16:54:43.001Z</time></trkpt><trkpt lat="57.80869672378658" lon="-4.040341693818339"><ele>7.0</ele><time>2026-04-29T16:54:44.001Z</time></trkpt><trkpt lat="57.808769372129404" lon="-4.040512180358383"><ele>7.0</ele><time>2026-04-29T16:54:46.001Z</time></trkpt><trkpt lat="57.80884263635523" lon="-4.040686341583786"><ele>7.199999999999999</ele><time>2026-04-29T16:54:48.001Z</time></trkpt><trkpt lat="57.80892566408795" lon="-4.040848976641498"><ele>7.3999999999999995</ele><time>2026-04-29T16:54:50.001Z</time></trkpt><trkpt lat="57.80897757356769" lon="-4.041034646135844"><ele>7.6000000000000005</ele><time>2026-04-29T16:54:52.001Z</time></trkpt><trkpt lat="57.80903404573697" lon="-4.041195738527891"><ele>7.800000000000001</ele><time>2026-04-29T16:54:54.001Z</time></trkpt><trkpt lat="57.809085115854934" lon="-4.041372851172037"><ele>8.0</ele><time>2026-04-29T16:54:56.001Z</time></trkpt><trkpt lat="57.80913709623957" lon="-4.041545015675075"><ele>8.0</ele><time>2026-04-29T16:54:58.001Z</time></trkpt><trkpt lat="57.8091815667126" lon="-4.041742543378455"><ele>8.0</ele><time>2026-04-29T16:55:00.001Z</time></trkpt><trkpt lat="57.809209497812475" lon="-4.041927002906055"><ele>8.0</ele><time>2026-04-29T16:55:02.001Z</time></trkpt><trkpt lat="57.8092643944087" lon="-4.042103579249223"><ele>8.0</ele><time>2026-04-29T16:55:04.001Z</time></trkpt><trkpt lat="57.80927603112893" lon="-4.0422198488328345"><ele>8.0</ele><time>2026-04-29T16:55:05.001Z</time></trkpt><trkpt lat="57.8093049306538" lon="-4.042342778032288"><ele>8.0</ele><time>2026-04-29T16:55:06.001Z</time></trkpt><trkpt lat="57.80934555138071" lon="-4.042513010922829"><ele>8.0</ele><time>2026-04-29T16:55:08.001Z</time></trkpt><trkpt lat="57.80940324060957" lon="-4.0426875063235315"><ele>8.0</ele><time>2026-04-29T16:55:10.001Z</time></trkpt><trkpt lat="57.80945094760729" lon="-4.042859127766578"><ele>8.0</ele><time>2026-04-29T16:55:12.001Z</time></trkpt><trkpt lat="57.80949947677708" lon="-4.0430338737878095"><ele>8.0</ele><time>2026-04-29T16:55:14.001Z</time></trkpt><trkpt lat="57.809537438269395" lon="-4.043227393774568"><ele>8.0</ele><time>2026-04-29T16:55:16.001Z</time></trkpt><trkpt lat="57.80960177442928" lon="-4.043383532275754"><ele>8.0</ele><time>2026-04-29T16:55:18.001Z</time></trkpt><trkpt lat="57.80964074328762" lon="-4.043570744249783"><ele>8.0</ele><time>2026-04-29T16:55:20.001Z</time></trkpt><trkpt lat="57.80971332984382" lon="-4.043722423762221"><ele>8.0</ele><time>2026-04-29T16:55:22.001Z</time></trkpt><trkpt lat="57.8097668356791" lon="-4.043900628735929"><ele>8.0</ele><time>2026-04-29T16:55:24.001Z</time></trkpt><trkpt lat="57.809840794363005" lon="-4.0440653958444885"><ele>8.0</ele><time>2026-04-29T16:55:26.001Z</time></trkpt><trkpt lat="57.80991693577569" lon="-4.044233135247712"><ele>8.0</ele><time>2026-04-29T16:55:28.001Z</time></trkpt><trkpt lat="57.80996408712738" lon="-4.0443375982918655"><ele>8.0</ele><time>2026-04-29T16:55:29.001Z</time></trkpt><trkpt lat="57.81003243254147" lon="-4.04449021837173"><ele>8.0</ele><time>2026-04-29T16:55:31.001Z</time></trkpt><trkpt lat="57.81010473658499" lon="-4.044651678345983"><ele>8.0</ele><time>2026-04-29T16:55:33.001Z</time></trkpt><trkpt lat="57.810186162218876" lon="-4.044792323952381"><ele>8.0</ele><time>2026-04-29T16:55:35.001Z</time></trkpt><trkpt lat="57.81024289824871" lon="-4.044965620449418"><ele>8.0</ele><time>2026-04-29T16:55:37.001Z</time></trkpt><trkpt lat="57.81025650282047" lon="-4.045170682713077"><ele>8.0</ele><time>2026-04-29T16:55:39.001Z</time></trkpt><trkpt lat="57.81029310524478" lon="-4.0453645834094685"><ele>8.0</ele><time>2026-04-29T16:55:41.001Z</time></trkpt><trkpt lat="57.81032711857245" lon="-4.045535195166385"><ele>8.0</ele><time>2026-04-29T16:55:43.001Z</time></trkpt><trkpt lat="57.810349672666796" lon="-4.045648327102342"><ele>7.800000000000001</ele><time>2026-04-29T16:55:44.001Z</time></trkpt><trkpt lat="57.8103894881455" lon="-4.045840985875552"><ele>7.6000000000000005</ele><time>2026-04-29T16:55:46.001Z</time></trkpt><trkpt lat="57.810444443550786" lon="-4.046013054669566"><ele>7.3999999999999995</ele><time>2026-04-29T16:55:48.001Z</time></trkpt><trkpt lat="57.81047370739783" lon="-4.046207952102161"><ele>7.199999999999999</ele><time>2026-04-29T16:55:50.001Z</time></trkpt><trkpt lat="57.81051900555246" lon="-4.046392109828927"><ele>7.0</ele><time>2026-04-29T16:55:52.001Z</time></trkpt><trkpt lat="57.81057719144983" lon="-4.046566965457836"><ele>7.0</ele><time>2026-04-29T16:55:54.001Z</time></trkpt><trkpt lat="57.810614472953965" lon="-4.046760627636942"><ele>6.999999999999999</ele><time>2026-04-29T16:55:56.001Z</time></trkpt><trkpt lat="57.81064816434397" lon="-4.0469581624591"><ele>6.999999999999999</ele><time>2026-04-29T16:55:58.001Z</time></trkpt><trkpt lat="57.81067847146263" lon="-4.047153674011184"><ele>7.0</ele><time>2026-04-29T16:56:00.001Z</time></trkpt><trkpt lat="57.81070422734618" lon="-4.047351604810542"><ele>7.0</ele><time>2026-04-29T16:56:02.001Z</time></trkpt><trkpt lat="57.81069282694295" lon="-4.047550803299105"><ele>7.0</ele><time>2026-04-29T16:56:04.001Z</time></trkpt><trkpt lat="57.81068909203864" lon="-4.047745161912467"><ele>6.999999999999999</ele><time>2026-04-29T16:56:06.001Z</time></trkpt><trkpt lat="57.81068181191614" lon="-4.047943267775136"><ele>6.999999999999999</ele><time>2026-04-29T16:56:08.001Z</time></trkpt><trkpt lat="57.81068145648783" lon="-4.048126711206725"><ele>7.0</ele><time>2026-04-29T16:56:10.001Z</time></trkpt><trkpt lat="57.810677089257" lon="-4.048337970979172"><ele>7.0</ele><time>2026-04-29T16:56:12.001Z</time></trkpt><trkpt lat="57.81065583213511" lon="-4.048528928747821"><ele>7.0</ele><time>2026-04-29T16:56:14.001Z</time></trkpt><trkpt lat="57.81066002310656" lon="-4.048721202884548"><ele>6.999999999999999</ele><time>2026-04-29T16:56:16.001Z</time></trkpt><trkpt lat="57.81065115705495" lon="-4.048907087886483"><ele>6.999999999999999</ele><time>2026-04-29T16:56:18.001Z</time></trkpt><trkpt lat="57.81064875558688" lon="-4.049075170583408"><ele>7.0</ele><time>2026-04-29T16:56:20.001Z</time></trkpt><trkpt lat="57.81064174829791" lon="-4.049235460391537"><ele>7.0</ele><time>2026-04-29T16:56:22.001Z</time></trkpt><trkpt lat="57.81065213648593" lon="-4.049401240108353"><ele>7.3999999999999995</ele><time>2026-04-29T16:56:24.001Z</time></trkpt><trkpt lat="57.81068781012942" lon="-4.049568630720594"><ele>7.799999999999999</ele><time>2026-04-29T16:56:26.001Z</time></trkpt><trkpt lat="57.81070998672839" lon="-4.049745380960489"><ele>8.2</ele><time>2026-04-29T16:56:28.001Z</time></trkpt><trkpt lat="57.81075671855118" lon="-4.049903360737999"><ele>8.6</ele><time>2026-04-29T16:56:30.001Z</time></trkpt><trkpt lat="57.810812800667016" lon="-4.050053588787942"><ele>9.0</ele><time>2026-04-29T16:56:32.001Z</time></trkpt><trkpt lat="57.8108901217029" lon="-4.050183866146306"><ele>9.0</ele><time>2026-04-29T16:56:34.001Z</time></trkpt><trkpt lat="57.81095364365499" lon="-4.050329600745659"><ele>9.0</ele><time>2026-04-29T16:56:36.001Z</time></trkpt><trkpt lat="57.81102239658384" lon="-4.050465081864273"><ele>9.0</ele><time>2026-04-29T16:56:38.001Z</time></trkpt><trkpt lat="57.81110212876641" lon="-4.050638289462789"><ele>9.0</ele><time>2026-04-29T16:56:40.001Z</time></trkpt><trkpt lat="57.81116611490257" lon="-4.05075156259498"><ele>9.0</ele><time>2026-04-29T16:56:42.001Z</time></trkpt><trkpt lat="57.811235181348664" lon="-4.0508974131035815"><ele>9.4</ele><time>2026-04-29T16:56:44.001Z</time></trkpt><trkpt lat="57.81129263265306" lon="-4.051043997258034"><ele>9.8</ele><time>2026-04-29T16:56:46.001Z</time></trkpt><trkpt lat="57.8113778505753" lon="-4.051169046271442"><ele>10.200000000000001</ele><time>2026-04-29T16:56:48.001Z</time></trkpt><trkpt lat="57.81144574152547" lon="-4.051299322949457"><ele>10.600000000000001</ele><time>2026-04-29T16:56:50.001Z</time></trkpt><trkpt lat="57.811505134259455" lon="-4.051458989187059"><ele>11.0</ele><time>2026-04-29T16:56:52.001Z</time></trkpt><trkpt lat="57.811581885845115" lon="-4.051608782101232"><ele>11.0</ele><time>2026-04-29T16:56:54.001Z</time></trkpt><trkpt lat="57.81164620428616" lon="-4.0517385744467065"><ele>11.0</ele><time>2026-04-29T16:56:56.001Z</time></trkpt><trkpt lat="57.81169923893915" lon="-4.05181462248512"><ele>11.0</ele><time>2026-04-29T16:56:59.001Z</time></trkpt><trkpt lat="57.81174750363395" lon="-4.051936898064758"><ele>11.0</ele><time>2026-04-29T16:57:01.001Z</time></trkpt><trkpt lat="57.81179981493171" lon="-4.052022466547335"><ele>11.0</ele><time>2026-04-29T16:57:03Z</time></trkpt><trkpt lat="57.8118420380195" lon="-4.052150082364702"><ele>11.0</ele><time>2026-04-29T16:57:05Z</time></trkpt><trkpt lat="57.81198596448389" lon="-4.052555419328124"><ele>11.0</ele><time>2026-04-29T16:57:07Z</time></trkpt><trkpt lat="57.812022688885584" lon="-4.0527003090997376"><ele>11.0</ele><time>2026-04-29T16:57:09.001Z</time></trkpt><trkpt lat="57.81205773004631" lon="-4.052828813192401"><ele>11.0</ele><time>2026-04-29T16:57:13.001Z</time></trkpt><trkpt lat="57.81198539714172" lon="-4.052884884467578"><ele>11.0</ele><time>2026-04-29T16:57:18.001Z</time></trkpt><trkpt lat="57.81194137605059" lon="-4.053039546112242"><ele>11.0</ele><time>2026-04-29T16:57:21.001Z</time></trkpt><trkpt lat="57.81191561172132" lon="-4.053158580734378"><ele>11.0</ele><time>2026-04-29T16:57:23.001Z</time></trkpt><trkpt lat="57.81190478999499" lon="-4.05327732854131"><ele>11.666666666666666</ele><time>2026-04-29T16:57:27.001Z</time></trkpt><trkpt lat="57.81190188987312" lon="-4.053464619882741"><ele>12.333333333333332</ele><time>2026-04-29T16:57:31.001Z</time></trkpt><trkpt lat="57.81187024624173" lon="-4.0535767128026885"><ele>13.0</ele><time>2026-04-29T16:57:34.001Z</time></trkpt><trkpt lat="57.81180227621973" lon="-4.053640739244895"><ele>13.666666666666666</ele><time>2026-04-29T16:57:37.001Z</time></trkpt><trkpt lat="57.811728865234144" lon="-4.053691274504075"><ele>14.333333333333334</ele><time>2026-04-29T16:57:40.001Z</time></trkpt><trkpt lat="57.81169458942646" lon="-4.053843256742647"><ele>15.0</ele><time>2026-04-29T16:57:43.001Z</time></trkpt><trkpt lat="57.811687806507024" lon="-4.053984022685704"><ele>16.2</ele><time>2026-04-29T16:57:45.001Z</time></trkpt><trkpt lat="57.81171061896151" lon="-4.054181371428654"><ele>17.4</ele><time>2026-04-29T16:57:48.001Z</time></trkpt><trkpt lat="57.81174080710939" lon="-4.054350964869583"><ele>18.6</ele><time>2026-04-29T16:57:50.001Z</time></trkpt><trkpt lat="57.81177691591904" lon="-4.054483756861928"><ele>19.8</ele><time>2026-04-29T16:57:53.001Z</time></trkpt><trkpt lat="57.81183328158996" lon="-4.054629427321743"><ele>21.0</ele><time>2026-04-29T16:57:55.001Z</time></trkpt><trkpt lat="57.81186934278081" lon="-4.054765918947215"><ele>21.0</ele><time>2026-04-29T16:57:57.001Z</time></trkpt><trkpt lat="57.8119137264278" lon="-4.054882063170971"><ele>21.0</ele><time>2026-04-29T16:58:01.001Z</time></trkpt><trkpt lat="57.81201137086966" lon="-4.055037616298811"><ele>21.0</ele><time>2026-04-29T16:58:03.001Z</time></trkpt><trkpt lat="57.8120642894343" lon="-4.055134329110288"><ele>21.0</ele><time>2026-04-29T16:58:04.001Z</time></trkpt><trkpt lat="57.812118454711054" lon="-4.055271006781892"><ele>21.0</ele><time>2026-04-29T16:58:06.001Z</time></trkpt><trkpt lat="57.81221965511235" lon="-4.0554169315753645"><ele>20.666666666666668</ele><time>2026-04-29T16:58:09.001Z</time></trkpt><trkpt lat="57.81229402603918" lon="-4.055535166656473"><ele>20.333333333333336</ele><time>2026-04-29T16:58:12.001Z</time></trkpt><trkpt lat="57.81234385921378" lon="-4.055619000314346"><ele>20.0</ele><time>2026-04-29T16:58:14.001Z</time></trkpt><trkpt lat="57.81269950372842" lon="-4.0561699512450025"><ele>20.0</ele><time>2026-04-29T16:58:17.001Z</time></trkpt><trkpt lat="57.81277859647818" lon="-4.05632644641922"><ele>20.0</ele><time>2026-04-29T16:58:19Z</time></trkpt><trkpt lat="57.81284942270622" lon="-4.056475342697506"><ele>20.0</ele><time>2026-04-29T16:58:21Z</time></trkpt><trkpt lat="57.81289890600935" lon="-4.056581082290033"><ele>20.0</ele><time>2026-04-29T16:58:22Z</time></trkpt><trkpt lat="57.8129864083078" lon="-4.056749906892783"><ele>20.0</ele><time>2026-04-29T16:58:24Z</time></trkpt><trkpt lat="57.813072845793776" lon="-4.056899546043098"><ele>20.6</ele><time>2026-04-29T16:58:26Z</time></trkpt><trkpt lat="57.8131210084751" lon="-4.0569789286994125"><ele>21.2</ele><time>2026-04-29T16:58:27Z</time></trkpt><trkpt lat="57.81316013503212" lon="-4.057121562620315"><ele>21.799999999999997</ele><time>2026-04-29T16:58:28Z</time></trkpt><trkpt lat="57.81325245551273" lon="-4.057177727278447"><ele>22.4</ele><time>2026-04-29T16:58:30Z</time></trkpt><trkpt lat="57.81333776697042" lon="-4.056942379409306"><ele>23.0</ele><time>2026-04-29T16:58:31Z</time></trkpt><trkpt lat="57.813436142986916" lon="-4.056898955409837"><ele>22.0</ele><time>2026-04-29T16:58:33Z</time></trkpt><trkpt lat="57.81350326796224" lon="-4.056866476293447"><ele>21.0</ele><time>2026-04-29T16:58:34Z</time></trkpt><trkpt lat="57.81356722748609" lon="-4.056836652396661"><ele>20.0</ele><time>2026-04-29T16:58:35Z</time></trkpt><trkpt lat="57.81363970134566" lon="-4.056818815249442"><ele>19.0</ele><time>2026-04-29T16:58:36Z</time></trkpt><trkpt lat="57.81371187541545" lon="-4.056797262966204"><ele>18.0</ele><time>2026-04-29T16:58:37Z</time></trkpt><trkpt lat="57.813774180224605" lon="-4.056838794253007"><ele>17.0</ele><time>2026-04-29T16:58:38Z</time></trkpt><trkpt lat="57.81384508057329" lon="-4.056869426915627"><ele>16.0</ele><time>2026-04-29T16:58:39Z</time></trkpt><trkpt lat="57.81393429537124" lon="-4.056882699028466"><ele>15.999999999999998</ele><time>2026-04-29T16:58:40Z</time></trkpt><trkpt lat="57.814018894562786" lon="-4.0569544472942605"><ele>16.0</ele><time>2026-04-29T16:58:41Z</time></trkpt><trkpt lat="57.81409102332564" lon="-4.0569658587054445"><ele>16.0</ele><time>2026-04-29T16:58:42Z</time></trkpt><trkpt lat="57.81417941986841" lon="-4.057023070654742"><ele>16.0</ele><time>2026-04-29T16:58:43Z</time></trkpt><trkpt lat="57.81426275509999" lon="-4.05707002600208"><ele>15.999999999999998</ele><time>2026-04-29T16:58:44Z</time></trkpt><trkpt lat="57.81434407848533" lon="-4.057137640064498"><ele>16.0</ele><time>2026-04-29T16:58:45Z</time></trkpt><trkpt lat="57.81443787576565" lon="-4.0571860811210385"><ele>14.600000000000001</ele><time>2026-04-29T16:58:46Z</time></trkpt><trkpt lat="57.81453820092483" lon="-4.057227425556504"><ele>13.200000000000001</ele><time>2026-04-29T16:58:47Z</time></trkpt><trkpt lat="57.81463347362029" lon="-4.057260580177474"><ele>11.8</ele><time>2026-04-29T16:58:48Z</time></trkpt><trkpt lat="57.81474583669763" lon="-4.057169935157152"><ele>10.4</ele><time>2026-04-29T16:58:49Z</time></trkpt><trkpt lat="57.814843651942205" lon="-4.057134310598508"><ele>9.0</ele><time>2026-04-29T16:58:50Z</time></trkpt><trkpt lat="57.81493563340749" lon="-4.057114463208441"><ele>9.0</ele><time>2026-04-29T16:58:51Z</time></trkpt><trkpt lat="57.815024595082214" lon="-4.057060209791684"><ele>9.0</ele><time>2026-04-29T16:58:52Z</time></trkpt><trkpt lat="57.81511964351788" lon="-4.0570355253214085"><ele>9.0</ele><time>2026-04-29T16:58:53Z</time></trkpt><trkpt lat="57.81520678306997" lon="-4.056993762324022"><ele>9.0</ele><time>2026-04-29T16:58:54Z</time></trkpt><trkpt lat="57.81528546324198" lon="-4.056959361381188"><ele>9.0</ele><time>2026-04-29T16:58:55Z</time></trkpt><trkpt lat="57.815368614945804" lon="-4.056986286962374"><ele>9.0</ele><time>2026-04-29T16:58:56Z</time></trkpt><trkpt lat="57.81544323964527" lon="-4.0572565176645385"><ele>9.000000000000002</ele><time>2026-04-29T16:58:58Z</time></trkpt><trkpt lat="57.815497824471144" lon="-4.057348189384189"><ele>9.0</ele><time>2026-04-29T16:58:59Z</time></trkpt><trkpt lat="57.81554040791478" lon="-4.057462727058811"><ele>9.0</ele><time>2026-04-29T16:59:00Z</time></trkpt><trkpt lat="57.81558622034481" lon="-4.057555071844983"><ele>9.0</ele><time>2026-04-29T16:59:01Z</time></trkpt><trkpt lat="57.81563194371349" lon="-4.057663707241488"><ele>9.0</ele><time>2026-04-29T16:59:02Z</time></trkpt><trkpt lat="57.815676757467386" lon="-4.05776711625178"><ele>9.000000000000002</ele><time>2026-04-29T16:59:03Z</time></trkpt><trkpt lat="57.81572060380242" lon="-4.057878509760072"><ele>9.0</ele><time>2026-04-29T16:59:04Z</time></trkpt><trkpt lat="57.81576578281616" lon="-4.057977883325371"><ele>9.0</ele><time>2026-04-29T16:59:05Z</time></trkpt><trkpt lat="57.815817124235494" lon="-4.058058797195581"><ele>9.0</ele><time>2026-04-29T16:59:06Z</time></trkpt><trkpt lat="57.815868092169794" lon="-4.0581435627168725"><ele>9.0</ele><time>2026-04-29T16:59:07Z</time></trkpt><trkpt lat="57.815915472081244" lon="-4.058230871115776"><ele>9.0</ele><time>2026-04-29T16:59:08Z</time></trkpt><trkpt lat="57.81596288115812" lon="-4.058317257218484"><ele>9.0</ele><time>2026-04-29T16:59:09Z</time></trkpt><trkpt lat="57.81601254664769" lon="-4.058402998009367"><ele>9.0</ele><time>2026-04-29T16:59:10Z</time></trkpt><trkpt lat="57.816101665064586" lon="-4.058571571251956"><ele>9.0</ele><time>2026-04-29T16:59:12Z</time></trkpt><trkpt lat="57.81615276408752" lon="-4.05864317344543"><ele>9.0</ele><time>2026-04-29T16:59:13Z</time></trkpt><trkpt lat="57.81620036083135" lon="-4.058735778520614"><ele>9.0</ele><time>2026-04-29T16:59:14Z</time></trkpt><trkpt lat="57.81629710856358" lon="-4.0588834253307615"><ele>9.0</ele><time>2026-04-29T16:59:16Z</time></trkpt><trkpt lat="57.816342964799475" lon="-4.058969411344334"><ele>9.0</ele><time>2026-04-29T16:59:17Z</time></trkpt><trkpt lat="57.81643520907388" lon="-4.059141617394328"><ele>8.8</ele><time>2026-04-29T16:59:19Z</time></trkpt><trkpt lat="57.816528661149626" lon="-4.0592915573380886"><ele>8.600000000000001</ele><time>2026-04-29T16:59:21Z</time></trkpt><trkpt lat="57.816619682193085" lon="-4.059441676644389"><ele>8.4</ele><time>2026-04-29T16:59:23Z</time></trkpt><trkpt lat="57.8166668216195" lon="-4.059528248267385"><ele>8.200000000000001</ele><time>2026-04-29T16:59:24Z</time></trkpt><trkpt lat="57.81674939900321" lon="-4.059692978165517"><ele>8.0</ele><time>2026-04-29T16:59:26Z</time></trkpt><trkpt lat="57.81683833653866" lon="-4.059847033480232"><ele>8.0</ele><time>2026-04-29T16:59:28Z</time></trkpt><trkpt lat="57.816927818211546" lon="-4.059966590022421"><ele>8.0</ele><time>2026-04-29T16:59:30Z</time></trkpt><trkpt lat="57.817007071467536" lon="-4.060084502758933"><ele>8.0</ele><time>2026-04-29T16:59:32Z</time></trkpt><trkpt lat="57.81707770307591" lon="-4.060214074270241"><ele>8.0</ele><time>2026-04-29T16:59:34Z</time></trkpt><trkpt lat="57.81714148232249" lon="-4.060279761404809"><ele>8.0</ele><time>2026-04-29T16:59:37Z</time></trkpt><trkpt lat="57.81721232546938" lon="-4.0601883991090375"><ele>8.0</ele><time>2026-04-29T16:59:40Z</time></trkpt><trkpt lat="57.81728181465348" lon="-4.0602047343256"><ele>8.0</ele><time>2026-04-29T16:59:43Z</time></trkpt><trkpt lat="57.81730690261139" lon="-4.060051194973118"><ele>8.0</ele><time>2026-04-29T17:02:38Z</time></trkpt><trkpt lat="57.817287188014625" lon="-4.059915178635549"><ele>8.0</ele><time>2026-04-29T17:02:40Z</time></trkpt><trkpt lat="57.81715744756913" lon="-4.059665398706033"><ele>8.0</ele><time>2026-04-29T17:03:51Z</time></trkpt><trkpt lat="57.81721252518339" lon="-4.059914303845113"><ele>8.0</ele><time>2026-04-29T17:04:02Z</time></trkpt><trkpt lat="57.81725101213786" lon="-4.060023734895135"><ele>8.0</ele><time>2026-04-29T17:15:26.001Z</time></trkpt><trkpt lat="57.817233586737714" lon="-4.059729874137845"><ele>8.0</ele><time>2026-04-29T17:16:07.001Z</time></trkpt><trkpt lat="57.817872189692125" lon="-4.0608992553159755"><ele>8.0</ele><time>2026-04-29T17:16:09.001Z</time></trkpt><trkpt lat="57.817968137478836" lon="-4.060959218632642"><ele>8.0</ele><time>2026-04-29T17:16:11.001Z</time></trkpt><trkpt lat="57.8173543688066" lon="-4.0600739415966665"><ele>8.0</ele><time>2026-04-29T17:16:15.001Z</time></trkpt><trkpt lat="57.81752726397134" lon="-4.060504537708153"><ele>8.0</ele><time>2026-04-29T17:16:56.001Z</time></trkpt><trkpt lat="57.81745939520948" lon="-4.060427164662685"><ele>8.0</ele><time>2026-04-29T17:17:02.001Z</time></trkpt><trkpt lat="57.817279878656585" lon="-4.060171649946156"><ele>7.999999999999999</ele><time>2026-04-29T17:17:07.001Z</time></trkpt><trkpt lat="57.81731458269692" lon="-4.060291335500492"><ele>8.0</ele><time>2026-04-29T17:18:21Z</time></trkpt><trkpt lat="57.81721547899946" lon="-4.060306861164241"><ele>8.0</ele><time>2026-04-29T17:18:25Z</time></trkpt><trkpt lat="57.81713717304066" lon="-4.060288474665558"><ele>8.0</ele><time>2026-04-29T17:18:27Z</time></trkpt><trkpt lat="57.817077487387614" lon="-4.060183845938439"><ele>7.999999999999999</ele><time>2026-04-29T17:18:29Z</time></trkpt><trkpt lat="57.817006612946344" lon="-4.060068245495994"><ele>8.0</ele><time>2026-04-29T17:18:31Z</time></trkpt><trkpt lat="57.8169430699942" lon="-4.059965943259306"><ele>7.999999999999999</ele><time>2026-04-29T17:18:33Z</time></trkpt><trkpt lat="57.81688244264293" lon="-4.059815270167788"><ele>8.0</ele><time>2026-04-29T17:18:35Z</time></trkpt><trkpt lat="57.81680711810776" lon="-4.059686820104431"><ele>8.0</ele><time>2026-04-29T17:18:37Z</time></trkpt><trkpt lat="57.81676758980564" lon="-4.059584709785332"><ele>8.0</ele><time>2026-04-29T17:18:39Z</time></trkpt><trkpt lat="57.81671596877645" lon="-4.059477136689823"><ele>7.999999999999999</ele><time>2026-04-29T17:18:42Z</time></trkpt><trkpt lat="57.81663865052563" lon="-4.059396699566576"><ele>8.0</ele><time>2026-04-29T17:18:44Z</time></trkpt><trkpt lat="57.81655902885582" lon="-4.05930515884483"><ele>7.999999999999999</ele><time>2026-04-29T17:18:48Z</time></trkpt><trkpt lat="57.81650781189048" lon="-4.059203772530877"><ele>8.0</ele><time>2026-04-29T17:18:49Z</time></trkpt><trkpt lat="57.81644798637264" lon="-4.059068777076551"><ele>8.0</ele><time>2026-04-29T17:18:50Z</time></trkpt><trkpt lat="57.816407431458764" lon="-4.058976299514571"><ele>8.0</ele><time>2026-04-29T17:18:51Z</time></trkpt><trkpt lat="57.81634881102166" lon="-4.05888411484205"><ele>7.999999999999999</ele><time>2026-04-29T17:18:52Z</time></trkpt><trkpt lat="57.81629006411288" lon="-4.058796682416756"><ele>8.0</ele><time>2026-04-29T17:18:53Z</time></trkpt><trkpt lat="57.816237572722365" lon="-4.05871802223723"><ele>8.200000000000001</ele><time>2026-04-29T17:18:54Z</time></trkpt><trkpt lat="57.81617809486188" lon="-4.058632568496103"><ele>8.4</ele><time>2026-04-29T17:18:55Z</time></trkpt><trkpt lat="57.816083141300936" lon="-4.058476909552504"><ele>8.600000000000001</ele><time>2026-04-29T17:18:57Z</time></trkpt><trkpt lat="57.81601040887915" lon="-4.058323184790854"><ele>8.8</ele><time>2026-04-29T17:18:59Z</time></trkpt><trkpt lat="57.81593089721652" lon="-4.058189039071386"><ele>9.0</ele><time>2026-04-29T17:19:01Z</time></trkpt><trkpt lat="57.815843019406465" lon="-4.058053483965632"><ele>9.0</ele><time>2026-04-29T17:19:03Z</time></trkpt><trkpt lat="57.81579842367406" lon="-4.0579502779460315"><ele>9.0</ele><time>2026-04-29T17:19:04Z</time></trkpt><trkpt lat="57.815735016512264" lon="-4.057817956916861"><ele>9.0</ele><time>2026-04-29T17:19:06Z</time></trkpt><trkpt lat="57.81567099596375" lon="-4.057673888949063"><ele>9.0</ele><time>2026-04-29T17:19:08Z</time></trkpt><trkpt lat="57.81560601610783" lon="-4.057538512819937"><ele>9.0</ele><time>2026-04-29T17:19:10Z</time></trkpt><trkpt lat="57.815553890847646" lon="-4.057404899522537"><ele>8.833333333333334</ele><time>2026-04-29T17:19:12Z</time></trkpt><trkpt lat="57.815505862082304" lon="-4.0572724595955165"><ele>8.666666666666666</ele><time>2026-04-29T17:19:14Z</time></trkpt><trkpt lat="57.815461072361046" lon="-4.057147738252364"><ele>8.5</ele><time>2026-04-29T17:19:16Z</time></trkpt><trkpt lat="57.81542501625249" lon="-4.0570274110761035"><ele>8.333333333333332</ele><time>2026-04-29T17:19:17Z</time></trkpt><trkpt lat="57.815423477051525" lon="-4.05686545906741"><ele>8.166666666666666</ele><time>2026-04-29T17:19:20Z</time></trkpt><trkpt lat="57.815471116038886" lon="-4.056711790544264"><ele>8.0</ele><time>2026-04-29T17:19:22Z</time></trkpt><trkpt lat="57.8155171714292" lon="-4.056555655661309"><ele>7.800000000000001</ele><time>2026-04-29T17:19:24Z</time></trkpt><trkpt lat="57.81556130274894" lon="-4.056426288889265"><ele>7.6000000000000005</ele><time>2026-04-29T17:19:26Z</time></trkpt><trkpt lat="57.81551176353851" lon="-4.056299780221649"><ele>7.3999999999999995</ele><time>2026-04-29T17:19:27.998Z</time></trkpt><trkpt lat="57.81542938744345" lon="-4.056119742007236"><ele>7.199999999999999</ele><time>2026-04-29T17:19:29.998Z</time></trkpt><trkpt lat="57.815364264389125" lon="-4.055944675679916"><ele>7.0</ele><time>2026-04-29T17:19:31.998Z</time></trkpt><trkpt lat="57.81532565972058" lon="-4.055839421649076"><ele>7.0</ele><time>2026-04-29T17:19:32.998Z</time></trkpt><trkpt lat="57.815250973601806" lon="-4.05569155389275"><ele>7.0</ele><time>2026-04-29T17:19:34.999Z</time></trkpt><trkpt lat="57.8151807962602" lon="-4.055503388788655"><ele>7.0</ele><time>2026-04-29T17:19:36.999Z</time></trkpt><trkpt lat="57.81510544799886" lon="-4.0553353357885165"><ele>7.0</ele><time>2026-04-29T17:19:38.999Z</time></trkpt><trkpt lat="57.81502863748234" lon="-4.055154044574635"><ele>7.0</ele><time>2026-04-29T17:19:40.999Z</time></trkpt><trkpt lat="57.81495445376808" lon="-4.054968246363663"><ele>6.999999999999999</ele><time>2026-04-29T17:19:42.999Z</time></trkpt><trkpt lat="57.814911263643765" lon="-4.0548801503592085"><ele>6.999999999999999</ele><time>2026-04-29T17:19:43.999Z</time></trkpt><trkpt lat="57.814834319929005" lon="-4.054693572688483"><ele>7.0</ele><time>2026-04-29T17:19:45.999Z</time></trkpt><trkpt lat="57.81475267714305" lon="-4.0545231723170785"><ele>7.0</ele><time>2026-04-29T17:19:47.999Z</time></trkpt><trkpt lat="57.81467168243599" lon="-4.0543432674846995"><ele>7.0</ele><time>2026-04-29T17:19:49.999Z</time></trkpt><trkpt lat="57.81463079920366" lon="-4.054247609129134"><ele>6.999999999999999</ele><time>2026-04-29T17:19:50.999Z</time></trkpt><trkpt lat="57.81455216999522" lon="-4.054102149573676"><ele>6.999999999999999</ele><time>2026-04-29T17:19:52.999Z</time></trkpt><trkpt lat="57.81443769387303" lon="-4.054026450572176"><ele>7.0</ele><time>2026-04-29T17:19:54.999Z</time></trkpt><trkpt lat="57.814423175699815" lon="-4.053799118365426"><ele>7.0</ele><time>2026-04-29T17:19:56.999Z</time></trkpt><trkpt lat="57.81420757200884" lon="-4.053994478369106"><ele>7.166666666666667</ele><time>2026-04-29T17:19:59.999Z</time></trkpt><trkpt lat="57.81412807583523" lon="-4.054024654296985"><ele>7.333333333333334</ele><time>2026-04-29T17:20:01.999Z</time></trkpt><trkpt lat="57.8141336475846" lon="-4.0541730641518665"><ele>7.5</ele><time>2026-04-29T17:20:03.999Z</time></trkpt><trkpt lat="57.81412881250701" lon="-4.054344987151051"><ele>7.666666666666666</ele><time>2026-04-29T17:20:05.999Z</time></trkpt><trkpt lat="57.814097371586044" lon="-4.054476760293585"><ele>7.833333333333333</ele><time>2026-04-29T17:20:07.999Z</time></trkpt><trkpt lat="57.81403441613172" lon="-4.054578984710039"><ele>8.0</ele><time>2026-04-29T17:20:09.999Z</time></trkpt><trkpt lat="57.813915235807336" lon="-4.054495827594081"><ele>7.999999999999999</ele><time>2026-04-29T17:20:11.999Z</time></trkpt><trkpt lat="57.81394155106676" lon="-4.054348309289957"><ele>8.0</ele><time>2026-04-29T17:20:12.999Z</time></trkpt><trkpt lat="57.81385225794649" lon="-4.054288938200856"><ele>8.0</ele><time>2026-04-29T17:20:16.999Z</time></trkpt><trkpt lat="57.8137803352681" lon="-4.054395550868462"><ele>8.0</ele><time>2026-04-29T17:20:28.999Z</time></trkpt><trkpt lat="57.813702324841636" lon="-4.054378057357694"><ele>7.999999999999999</ele><time>2026-04-29T17:20:32.999Z</time></trkpt><trkpt lat="57.81371524772946" lon="-4.054541852061959"><ele>8.0</ele><time>2026-04-29T17:20:41Z</time></trkpt><trkpt lat="57.813577191027015" lon="-4.054488334808549"><ele>8.0</ele><time>2026-04-29T17:21:22Z</time></trkpt><trkpt lat="57.81371830036693" lon="-4.054044932130775"><ele>8.0</ele><time>2026-04-29T17:21:28Z</time></trkpt><trkpt lat="57.813743338733715" lon="-4.053734574245546"><ele>8.0</ele><time>2026-04-29T17:21:32Z</time></trkpt><trkpt lat="57.81379981437528" lon="-4.054166553545794"><ele>8.0</ele><time>2026-04-29T17:21:47.999Z</time></trkpt><trkpt lat="57.81379502908626" lon="-4.054649022515184"><ele>8.0</ele><time>2026-04-29T17:21:49.999Z</time></trkpt><trkpt lat="57.81373211239112" lon="-4.0548962980377885"><ele>8.0</ele><time>2026-04-29T17:22:06.496Z</time></trkpt><trkpt lat="57.81360725316382" lon="-4.054796821569944"><ele>7.999999999999999</ele><time>2026-04-29T17:22:37.395Z</time></trkpt><trkpt lat="57.81357368407472" lon="-4.05469213787992"><ele>8.0</ele><time>2026-04-29T17:22:49.422Z</time></trkpt><trkpt lat="57.813703215174286" lon="-4.054685242690402"><ele>8.0</ele><time>2026-04-29T17:22:55.451Z</time></trkpt><trkpt lat="57.81364619647195" lon="-4.054738083033791"><ele>8.0</ele><time>2026-04-29T17:23:09Z</time></trkpt><trkpt lat="57.81360317449989" lon="-4.054620489975735"><ele>7.999999999999999</ele><time>2026-04-29T17:24:48Z</time></trkpt><trkpt lat="57.81365294538113" lon="-4.054503129222499"><ele>8.0</ele><time>2026-04-29T17:24:52Z</time></trkpt><trkpt lat="57.813700589224155" lon="-4.054585123213878"><ele>8.0</ele><time>2026-04-29T17:25:03.001Z</time></trkpt><trkpt lat="57.8136932576574" lon="-4.0547427794848145"><ele>8.0</ele><time>2026-04-29T17:25:09.001Z</time></trkpt><trkpt lat="57.81369327427344" lon="-4.054617598633049"><ele>8.0</ele><time>2026-04-29T17:25:22.001Z</time></trkpt><trkpt lat="57.81368727563209" lon="-4.054379971597097"><ele>8.0</ele><time>2026-04-29T17:25:27.001Z</time></trkpt><trkpt lat="57.813694847578375" lon="-4.054525663486707"><ele>8.0</ele><time>2026-04-29T17:25:48Z</time></trkpt><trkpt lat="57.813672695497345" lon="-4.05431928188272"><ele>7.999999999999999</ele><time>2026-04-29T17:25:52Z</time></trkpt><trkpt lat="57.81360023843863" lon="-4.0542682314158"><ele>8.0</ele><time>2026-04-29T17:25:56Z</time></trkpt><trkpt lat="57.81353591240856" lon="-4.054131639543524"><ele>8.0</ele><time>2026-04-29T17:25:59Z</time></trkpt><trkpt lat="57.81348875044866" lon="-4.054017062712796"><ele>8.0</ele><time>2026-04-29T17:26:01Z</time></trkpt><trkpt lat="57.813436453634644" lon="-4.05391768417452"><ele>7.999999999999999</ele><time>2026-04-29T17:26:03Z</time></trkpt><trkpt lat="57.81340227443444" lon="-4.053805097409846"><ele>8.0</ele><time>2026-04-29T17:26:05Z</time></trkpt><trkpt lat="57.813367689289564" lon="-4.053701205550774"><ele>8.333333333333332</ele><time>2026-04-29T17:26:07Z</time></trkpt><trkpt lat="57.81331739947794" lon="-4.053627091959435"><ele>8.666666666666666</ele><time>2026-04-29T17:26:09Z</time></trkpt><trkpt lat="57.81331084203718" lon="-4.053460456178835"><ele>9.0</ele><time>2026-04-29T17:26:12Z</time></trkpt><trkpt lat="57.81331332450628" lon="-4.053314252514484"><ele>9.333333333333334</ele><time>2026-04-29T17:26:14Z</time></trkpt><trkpt lat="57.81332213989985" lon="-4.053157644468001"><ele>9.666666666666668</ele><time>2026-04-29T17:26:16Z</time></trkpt><trkpt lat="57.81333313474442" lon="-4.0529900198323086"><ele>10.0</ele><time>2026-04-29T17:26:18Z</time></trkpt><trkpt lat="57.81326133411697" lon="-4.052891089226697"><ele>10.0</ele><time>2026-04-29T17:26:20Z</time></trkpt><trkpt lat="57.81319915239933" lon="-4.052935325341689"><ele>10.0</ele><time>2026-04-29T17:26:31Z</time></trkpt><trkpt lat="57.81313391996582" lon="-4.052973430662692"><ele>10.0</ele><time>2026-04-29T17:26:41Z</time></trkpt><trkpt lat="57.81305708152756" lon="-4.052983004425216"><ele>10.0</ele><time>2026-04-29T17:26:44Z</time></trkpt><trkpt lat="57.8129921514567" lon="-4.053008039289377"><ele>10.0</ele><time>2026-04-29T17:26:47Z</time></trkpt><trkpt lat="57.81294828130825" lon="-4.053107013691402"><ele>10.0</ele><time>2026-04-29T17:26:50Z</time></trkpt><trkpt lat="57.81290567298455" lon="-4.053195100743974"><ele>10.0</ele><time>2026-04-29T17:26:52Z</time></trkpt><trkpt lat="57.812871010281306" lon="-4.053297460020657"><ele>10.0</ele><time>2026-04-29T17:26:54Z</time></trkpt><trkpt lat="57.81283879709276" lon="-4.053446462076621"><ele>10.0</ele><time>2026-04-29T17:26:57Z</time></trkpt><trkpt lat="57.812794701677696" lon="-4.053531212423123"><ele>10.0</ele><time>2026-04-29T17:26:59Z</time></trkpt><trkpt lat="57.812735087802665" lon="-4.053619754926781"><ele>10.0</ele><time>2026-04-29T17:27:02Z</time></trkpt><trkpt lat="57.81265414203611" lon="-4.053614480871057"><ele>10.0</ele><time>2026-04-29T17:27:06Z</time></trkpt><trkpt lat="57.812606657577696" lon="-4.053486243761446"><ele>10.0</ele><time>2026-04-29T17:27:09Z</time></trkpt><trkpt lat="57.81254005801568" lon="-4.053366329027113"><ele>10.142857142857142</ele><time>2026-04-29T17:27:12Z</time></trkpt><trkpt lat="57.8124880403471" lon="-4.053279876126352"><ele>10.285714285714286</ele><time>2026-04-29T17:27:14Z</time></trkpt><trkpt lat="57.81243249867575" lon="-4.05318467171478"><ele>10.428571428571429</ele><time>2026-04-29T17:27:16Z</time></trkpt><trkpt lat="57.81237827854675" lon="-4.053082319891696"><ele>10.571428571428571</ele><time>2026-04-29T17:27:18Z</time></trkpt><trkpt lat="57.81232179702495" lon="-4.052992454369799"><ele>10.714285714285714</ele><time>2026-04-29T17:27:20.001Z</time></trkpt><trkpt lat="57.812264582001674" lon="-4.052895791445193"><ele>10.857142857142858</ele><time>2026-04-29T17:27:22.001Z</time></trkpt><trkpt lat="57.81220722827924" lon="-4.05281166620404"><ele>11.0</ele><time>2026-04-29T17:27:24.001Z</time></trkpt><trkpt lat="57.812143453704195" lon="-4.0527460742043"><ele>11.0</ele><time>2026-04-29T17:27:26.001Z</time></trkpt><trkpt lat="57.812048455258655" lon="-4.052738414360721"><ele>11.0</ele><time>2026-04-29T17:27:29.001Z</time></trkpt><trkpt lat="57.812000755935124" lon="-4.0528264225855075"><ele>11.0</ele><time>2026-04-29T17:27:31.001Z</time></trkpt><trkpt lat="57.81196189880764" lon="-4.052939512313451"><ele>11.0</ele><time>2026-04-29T17:27:34.001Z</time></trkpt><trkpt lat="57.81192304098811" lon="-4.0530870636523595"><ele>11.0</ele><time>2026-04-29T17:27:37.001Z</time></trkpt><trkpt lat="57.811905911169355" lon="-4.053247078374351"><ele>11.0</ele><time>2026-04-29T17:27:40.001Z</time></trkpt><trkpt lat="57.81190676094134" lon="-4.053415630434262"><ele>11.666666666666666</ele><time>2026-04-29T17:27:43.001Z</time></trkpt><trkpt lat="57.811911097543174" lon="-4.053563126670718"><ele>12.333333333333332</ele><time>2026-04-29T17:27:46.001Z</time></trkpt><trkpt lat="57.811843989713076" lon="-4.053659567990614"><ele>13.0</ele><time>2026-04-29T17:27:49.001Z</time></trkpt><trkpt lat="57.811775178379705" lon="-4.053706924629395"><ele>13.666666666666666</ele><time>2026-04-29T17:27:52Z</time></trkpt><trkpt lat="57.81171563787626" lon="-4.053774558571058"><ele>14.333333333333334</ele><time>2026-04-29T17:27:55Z</time></trkpt><trkpt lat="57.811644180343635" lon="-4.053815760012067"><ele>15.0</ele><time>2026-04-29T17:27:59Z</time></trkpt><trkpt lat="57.811572677419385" lon="-4.053864057584707"><ele>15.857142857142858</ele><time>2026-04-29T17:28:04Z</time></trkpt><trkpt lat="57.81151153634542" lon="-4.053773301768653"><ele>16.714285714285715</ele><time>2026-04-29T17:28:09Z</time></trkpt><trkpt lat="57.81146676990023" lon="-4.053624489147654"><ele>17.57142857142857</ele><time>2026-04-29T17:28:12Z</time></trkpt><trkpt lat="57.81142516772214" lon="-4.0535168656312255"><ele>18.42857142857143</ele><time>2026-04-29T17:28:14Z</time></trkpt><trkpt lat="57.81138955468581" lon="-4.053409584504075"><ele>19.285714285714285</ele><time>2026-04-29T17:28:16Z</time></trkpt><trkpt lat="57.81134824103298" lon="-4.05331328657271"><ele>20.142857142857142</ele><time>2026-04-29T17:28:18Z</time></trkpt><trkpt lat="57.81130687490127" lon="-4.053214464760909"><ele>21.0</ele><time>2026-04-29T17:28:20Z</time></trkpt><trkpt lat="57.81125813845757" lon="-4.053080880060896"><ele>21.0</ele><time>2026-04-29T17:28:23Z</time></trkpt><trkpt lat="57.81119613195165" lon="-4.0529631117947185"><ele>21.0</ele><time>2026-04-29T17:28:26Z</time></trkpt><trkpt lat="57.8111436311649" lon="-4.052836903299626"><ele>21.0</ele><time>2026-04-29T17:28:29Z</time></trkpt><trkpt lat="57.81109783501642" lon="-4.052704759197896"><ele>21.0</ele><time>2026-04-29T17:28:32Z</time></trkpt><trkpt lat="57.81104022196737" lon="-4.052591505956593"><ele>21.0</ele><time>2026-04-29T17:28:35Z</time></trkpt><trkpt lat="57.81099411342773" lon="-4.052480003466582"><ele>21.0</ele><time>2026-04-29T17:28:38Z</time></trkpt><trkpt lat="57.81097269991908" lon="-4.052326584009133"><ele>21.857142857142858</ele><time>2026-04-29T17:30:37Z</time></trkpt><trkpt lat="57.810931299503416" lon="-4.052231987824173"><ele>22.714285714285715</ele><time>2026-04-29T17:30:45Z</time></trkpt><trkpt lat="57.810896425497276" lon="-4.052130545897545"><ele>23.57142857142857</ele><time>2026-04-29T17:30:49Z</time></trkpt><trkpt lat="57.81084318032145" lon="-4.052014707730912"><ele>24.42857142857143</ele><time>2026-04-29T17:30:53Z</time></trkpt><trkpt lat="57.81079133752178" lon="-4.051929446970682"><ele>25.285714285714285</ele><time>2026-04-29T17:30:56Z</time></trkpt><trkpt lat="57.81072385003482" lon="-4.051875448690363"><ele>26.142857142857142</ele><time>2026-04-29T17:31:00Z</time></trkpt><trkpt lat="57.810662422595044" lon="-4.051988517436124"><ele>27.0</ele><time>2026-04-29T17:31:04Z</time></trkpt><trkpt lat="57.81061280678284" lon="-4.052077755703496"><ele>27.0</ele><time>2026-04-29T17:31:07Z</time></trkpt><trkpt lat="57.810547164441154" lon="-4.052175243528424"><ele>27.0</ele><time>2026-04-29T17:31:11Z</time></trkpt><trkpt lat="57.81048349141937" lon="-4.052248119441644"><ele>27.0</ele><time>2026-04-29T17:31:14Z</time></trkpt><trkpt lat="57.81042636403055" lon="-4.052320236997842"><ele>27.0</ele><time>2026-04-29T17:31:17Z</time></trkpt><trkpt lat="57.81036627844281" lon="-4.0524020299953465"><ele>27.0</ele><time>2026-04-29T17:31:20Z</time></trkpt><trkpt lat="57.810304200089" lon="-4.052479325733639"><ele>27.0</ele><time>2026-04-29T17:32:05Z</time></trkpt><trkpt lat="57.81023322722529" lon="-4.0525639782725476"><ele>27.428571428571427</ele><time>2026-04-29T17:32:09Z</time></trkpt><trkpt lat="57.810158963657045" lon="-4.052628161864075"><ele>27.857142857142854</ele><time>2026-04-29T17:32:13Z</time></trkpt><trkpt lat="57.810089471761486" lon="-4.05270332595324"><ele>28.285714285714285</ele><time>2026-04-29T17:32:17Z</time></trkpt><trkpt lat="57.81002300027686" lon="-4.052703125558563"><ele>28.714285714285715</ele><time>2026-04-29T17:32:19Z</time></trkpt><trkpt lat="57.80995083024385" lon="-4.052695645082944"><ele>29.142857142857142</ele><time>2026-04-29T17:32:21Z</time></trkpt><trkpt lat="57.80988158138348" lon="-4.052700779105143"><ele>29.571428571428573</ele><time>2026-04-29T17:32:24Z</time></trkpt><trkpt lat="57.809810327699715" lon="-4.052645467730058"><ele>30.0</ele><time>2026-04-29T17:32:26Z</time></trkpt><trkpt lat="57.80973518193875" lon="-4.05254641385816"><ele>30.5</ele><time>2026-04-29T17:32:29Z</time></trkpt><trkpt lat="57.80968134734014" lon="-4.052470022680018"><ele>31.0</ele><time>2026-04-29T17:32:31Z</time></trkpt><trkpt lat="57.809634055989" lon="-4.0523864153457945"><ele>31.5</ele><time>2026-04-29T17:32:33Z</time></trkpt><trkpt lat="57.80958646574462" lon="-4.052302561362037"><ele>32.0</ele><time>2026-04-29T17:32:35Z</time></trkpt><trkpt lat="57.80949806783619" lon="-4.052373375050018"><ele>32.5</ele><time>2026-04-29T17:32:40Z</time></trkpt><trkpt lat="57.80943436377352" lon="-4.052492416694043"><ele>33.0</ele><time>2026-04-29T17:32:42Z</time></trkpt><trkpt lat="57.809377000419204" lon="-4.052584660785403"><ele>33.0</ele><time>2026-04-29T17:32:44Z</time></trkpt><trkpt lat="57.80932882110218" lon="-4.052688301069342"><ele>33.0</ele><time>2026-04-29T17:32:46Z</time></trkpt><trkpt lat="57.80927038608495" lon="-4.052759150337965"><ele>33.0</ele><time>2026-04-29T17:32:48Z</time></trkpt><trkpt lat="57.80921752151864" lon="-4.052826772357364"><ele>33.0</ele><time>2026-04-29T17:32:50Z</time></trkpt><trkpt lat="57.809155844395484" lon="-4.052936704626057"><ele>33.0</ele><time>2026-04-29T17:32:53Z</time></trkpt><trkpt lat="57.80914966099308" lon="-4.053056932080375"><ele>33.0</ele><time>2026-04-29T17:33:08Z</time></trkpt><trkpt lat="57.80920510489804" lon="-4.053150907582296"><ele>33.0</ele><time>2026-04-29T17:33:13Z</time></trkpt><trkpt lat="57.80909129230645" lon="-4.053186386886203"><ele>35.0</ele><time>2026-04-29T17:47:09Z</time></trkpt></trkseg></trk></gpx>